Time,TemperatureF,DewpointF,PressureIn,WindDirection,WindDirectionDegrees,WindSpeedMPH,WindSpeedGustMPH,Humidity,HourlyPrecipIn,Conditions,Clouds,dailyrainin,SoftwareType,DateUTC
2013-02-16 00:00:00,37.6,34.6,29.85,West,270,1.1,2.5,89,0.00,,SKC,0.00,VWS V14.01,2013-02-16 05:00:00,
2013-02-16 00:01:00,37.4,34.5,29.85,West,270,1.3,2.0,89,0.00,,SKC,0.00,VWS V14.01,2013-02-16 05:01:00,
2013-02-16 00:02:00,37.4,34.5,29.85,West,270,1.1,2.0,89,0.00,,SKC,0.00,VWS V14.01,2013-02-16 05:02:00,
2013-02-16 00:03:00,37.4,34.5,29.85,West,270,1.1,1.3,89,0.00,,SKC,0.00,VWS V14.01,2013-02-16 05:03:00,
2013-02-16 00:04:00,37.4,34.5,29.85,West,270,1.1,1.3,89,0.00,,SKC,0.00,VWS V14.01,2013-02-16 05:04:00,
2013-02-16 00:05:00,37.4,34.5,29.85,West,270,2.2,2.2,89,0.00,,SKC,0.00,VWS V14.01,2013-02-16 05:05:00,
2013-02-16 00:06:00,37.4,34.5,29.85,West,270,2.0,2.2,89,0.00,,SKC,0.00,VWS V14.01,2013-02-16 05:06:00,
2013-02-16 00:07:00,37.4,34.5,29.85,West,270,2.0,2.2,89,0.00,,SKC,0.00,VWS V14.01,2013-02-16 05:07:00,
2013-02-16 00:08:00,37.2,34.3,29.85,West,270,2.5,2.5,89,0.00,,SKC,0.00,VWS V14.01,2013-02-16 05:08:00,
2013-02-16 00:09:00,37.2,34.3,29.85,West,270,1.6,2.5,89,0.00,,SKC,0.00,VWS V14.01,2013-02-16 05:09:00,
2013-02-16 00:10:00,37.2,34.3,29.85,West,270,2.0,2.5,89,0.00,,SKC,0.00,VWS V14.01,2013-02-16 05:10:00,
2013-02-16 00:11:00,37.2,34.3,29.85,West,270,2.5,2.5,89,0.00,,SKC,0.00,VWS V14.01,2013-02-16 05:11:00,
2013-02-16 00:12:00,37.2,34.3,29.85,West,270,1.6,2.5,89,0.00,,SKC,0.00,VWS V14.01,2013-02-16 05:12:00,
2013-02-16 00:13:00,37.2,34.6,29.85,West,270,2.2,2.5,90,0.00,,SKC,0.00,VWS V14.01,2013-02-16 05:13:00,
2013-02-16 00:14:00,37.2,34.6,29.85,West,270,3.1,3.1,90,0.00,,SKC,0.00,VWS V14.01,2013-02-16 05:14:00,
2013-02-16 00:15:00,37.4,34.5,29.85,West,270,2.5,3.1,89,0.00,,SKC,0.00,VWS V14.01,2013-02-16 05:15:00,
2013-02-16 00:16:00,37.4,34.7,29.85,West,270,2.5,3.1,90,0.00,,SKC,0.00,VWS V14.01,2013-02-16 05:16:00,
2013-02-16 00:17:00,37.4,34.7,29.85,West,270,2.5,3.1,90,0.00,,SKC,0.00,VWS V14.01,2013-02-16 05:17:00,
2013-02-16 00:18:00,37.4,34.7,29.85,West,270,2.0,3.1,90,0.00,,SKC,0.00,VWS V14.01,2013-02-16 05:18:00,
2013-02-16 00:19:00,37.4,34.7,29.85,West,270,2.7,3.1,90,0.00,,SKC,0.00,VWS V14.01,2013-02-16 05:19:00,
2013-02-16 00:20:00,37.4,34.7,29.85,WSW,248,2.9,3.1,90,0.00,,SKC,0.00,VWS V14.01,2013-02-16 05:20:00,
2013-02-16 00:21:00,37.4,34.7,29.85,West,270,2.9,3.1,90,0.00,,SKC,0.00,VWS V14.01,2013-02-16 05:21:00,
2013-02-16 00:22:00,37.4,34.7,29.85,WSW,248,2.9,3.1,90,0.00,,SKC,0.00,VWS V14.01,2013-02-16 05:22:00,
2013-02-16 00:23:00,37.4,34.7,29.85,SW,225,2.7,3.1,90,0.00,,SKC,0.00,VWS V14.01,2013-02-16 05:23:00,
2013-02-16 00:24:00,37.4,35.0,29.85,WSW,248,2.7,3.1,91,0.00,,SKC,0.00,VWS V14.01,2013-02-16 05:24:00,
2013-02-16 00:25:00,37.4,35.0,29.85,WSW,248,2.7,3.1,91,0.00,,SKC,0.00,VWS V14.01,2013-02-16 05:25:00,
2013-02-16 00:26:00,37.4,35.0,29.85,SW,225,2.9,3.1,91,0.00,,SKC,0.00,VWS V14.01,2013-02-16 05:26:00,
2013-02-16 00:27:00,37.4,35.0,29.85,WSW,248,2.7,3.1,91,0.00,,SKC,0.00,VWS V14.01,2013-02-16 05:27:00,
2013-02-16 00:41:00,37.9,35.5,29.85,West,270,5.8,5.8,91,0.00,,SKC,0.00,VWS V14.01,2013-02-16 05:41:00,
2013-02-16 00:42:00,37.9,35.5,29.85,NW,315,5.4,5.8,91,0.00,,SKC,0.00,VWS V14.01,2013-02-16 05:42:00,
2013-02-16 00:43:00,37.9,35.5,29.85,WSW,248,7.4,7.4,91,0.00,,SKC,0.00,VWS V14.01,2013-02-16 05:43:00,
2013-02-16 00:44:00,37.9,35.5,29.85,NW,315,7.4,7.4,91,0.00,,SKC,0.00,VWS V14.01,2013-02-16 05:44:00,
2013-02-16 00:45:00,37.9,35.5,29.85,West,270,6.3,7.4,91,0.00,,SKC,0.00,VWS V14.01,2013-02-16 05:45:00,
2013-02-16 00:46:00,37.9,35.5,29.85,West,270,5.4,7.4,91,0.00,,SKC,0.00,VWS V14.01,2013-02-16 05:46:00,
2013-02-16 00:47:00,37.9,35.5,29.85,West,270,8.7,8.7,91,0.00,,SKC,0.00,VWS V14.01,2013-02-16 05:47:00,
2013-02-16 00:48:00,37.9,35.5,29.85,West,270,6.9,8.7,91,0.00,,SKC,0.00,VWS V14.01,2013-02-16 05:48:00,
2013-02-16 00:49:00,38.1,35.5,29.85,WNW,292,6.7,8.7,90,0.00,,SKC,0.00,VWS V14.01,2013-02-16 05:49:00,
2013-02-16 00:50:00,38.1,35.5,29.85,WNW,292,4.9,8.7,90,0.00,,SKC,0.00,VWS V14.01,2013-02-16 05:50:00,
2013-02-16 00:51:00,38.1,35.5,29.85,West,270,4.9,8.7,90,0.00,,SKC,0.00,VWS V14.01,2013-02-16 05:51:00,
2013-02-16 00:52:00,37.9,35.3,29.85,West,270,6.7,8.7,90,0.00,,SKC,0.00,VWS V14.01,2013-02-16 05:52:00,
2013-02-16 00:53:00,37.9,35.3,29.85,West,270,6.3,8.7,90,0.00,,SKC,0.00,VWS V14.01,2013-02-16 05:53:00,
2013-02-16 00:54:00,37.9,35.0,29.85,West,270,5.4,8.7,89,0.00,,SKC,0.00,VWS V14.01,2013-02-16 05:54:00,
2013-02-16 00:55:00,37.9,35.0,29.85,West,270,5.4,8.7,89,0.00,,SKC,0.00,VWS V14.01,2013-02-16 05:55:00,
2013-02-16 00:56:00,37.9,35.0,29.85,WNW,292,4.7,8.7,89,0.00,,SKC,0.00,VWS V14.01,2013-02-16 05:56:00,
2013-02-16 00:57:00,37.9,35.0,29.85,WNW,292,5.4,8.7,89,0.00,,SKC,0.00,VWS V14.01,2013-02-16 05:57:00,
2013-02-16 00:58:00,37.9,35.0,29.85,WNW,292,5.6,8.7,89,0.00,,SKC,0.00,VWS V14.01,2013-02-16 05:58:00,
2013-02-16 00:59:00,37.9,35.0,29.85,West,270,7.4,8.7,89,0.00,,SKC,0.00,VWS V14.01,2013-02-16 05:59:00,
2013-02-16 01:00:00,37.9,34.7,29.85,WNW,292,7.8,8.7,88,0.00,,SKC,0.00,VWS V14.01,2013-02-16 06:00:00,
2013-02-16 01:01:00,37.9,34.7,29.85,WNW,292,5.8,8.7,88,0.00,,SKC,0.00,VWS V14.01,2013-02-16 06:01:00,
2013-02-16 01:02:00,37.8,34.5,29.85,WNW,292,6.3,8.7,88,0.00,,SKC,0.00,VWS V14.01,2013-02-16 06:02:00,
2013-02-16 01:03:00,37.8,34.5,29.85,NW,315,3.8,8.7,88,0.00,,SKC,0.00,VWS V14.01,2013-02-16 06:03:00,
2013-02-16 01:04:00,37.8,34.5,29.85,NW,315,7.4,8.7,88,0.00,,SKC,0.00,VWS V14.01,2013-02-16 06:04:00,
2013-02-16 01:05:00,37.8,34.5,29.85,WNW,292,4.3,8.7,88,0.00,,SKC,0.00,VWS V14.01,2013-02-16 06:05:00,
2013-02-16 01:06:00,37.8,34.5,29.85,WNW,292,4.9,8.7,88,0.00,,SKC,0.00,VWS V14.01,2013-02-16 06:06:00,
2013-02-16 01:07:00,37.6,34.1,29.85,West,270,5.6,7.8,87,0.00,,SKC,0.00,VWS V14.01,2013-02-16 06:07:00,
2013-02-16 01:08:00,37.6,34.1,29.85,NW,315,6.0,7.8,87,0.00,,SKC,0.00,VWS V14.01,2013-02-16 06:08:00,
2013-02-16 01:09:00,37.6,34.1,29.85,NW,315,4.3,7.8,87,0.00,,SKC,0.00,VWS V14.01,2013-02-16 06:09:00,
2013-02-16 01:10:00,37.6,34.1,29.85,WNW,292,5.8,7.8,87,0.00,,SKC,0.00,VWS V14.01,2013-02-16 06:10:00,
2013-02-16 01:11:00,37.6,34.1,29.85,WNW,292,5.6,7.8,87,0.00,,SKC,0.00,VWS V14.01,2013-02-16 06:11:00,
2013-02-16 01:12:00,37.6,34.1,29.85,West,270,4.3,7.8,87,0.00,,SKC,0.00,VWS V14.01,2013-02-16 06:12:00,
2013-02-16 01:13:00,37.6,34.1,29.85,NW,315,4.9,7.8,87,0.00,,SKC,0.00,VWS V14.01,2013-02-16 06:13:00,
2013-02-16 01:14:00,37.6,34.1,29.85,NW,315,6.0,7.8,87,0.00,,SKC,0.00,VWS V14.01,2013-02-16 06:14:00,
2013-02-16 01:15:00,37.6,34.1,29.85,WNW,292,6.0,7.8,87,0.00,,SKC,0.00,VWS V14.01,2013-02-16 06:15:00,
2013-02-16 01:16:00,37.6,34.1,29.85,West,270,4.7,7.8,87,0.00,,SKC,0.00,VWS V14.01,2013-02-16 06:16:00,
2013-02-16 01:17:00,37.6,34.1,29.85,NW,315,2.9,7.8,87,0.00,,SKC,0.00,VWS V14.01,2013-02-16 06:17:00,
2013-02-16 01:18:00,37.4,33.9,29.85,West,270,6.5,7.8,87,0.00,,SKC,0.00,VWS V14.01,2013-02-16 06:18:00,
2013-02-16 01:19:00,37.4,33.9,29.85,West,270,3.6,7.8,87,0.00,,SKC,0.00,VWS V14.01,2013-02-16 06:19:00,
2013-02-16 01:20:00,37.4,33.9,29.85,NW,315,4.0,7.4,87,0.00,,SKC,0.00,VWS V14.01,2013-02-16 06:20:00,
2013-02-16 01:21:00,37.4,33.9,29.85,NW,315,4.9,7.4,87,0.00,,SKC,0.00,VWS V14.01,2013-02-16 06:21:00,
2013-02-16 01:24:00,37.4,33.9,29.85,WNW,292,6.3,7.4,87,0.00,,SKC,0.00,VWS V14.01,2013-02-16 06:24:00,
2013-02-16 01:25:00,37.4,33.9,29.85,WNW,292,4.3,7.4,87,0.00,,SKC,0.00,VWS V14.01,2013-02-16 06:25:00,
2013-02-16 01:26:00,37.4,33.9,29.85,West,270,5.6,6.5,87,0.00,,SKC,0.00,VWS V14.01,2013-02-16 06:26:00,
2013-02-16 01:27:00,37.2,33.7,29.85,WNW,292,5.4,6.5,87,0.00,,SKC,0.00,VWS V14.01,2013-02-16 06:27:00,
2013-02-16 01:28:00,37.2,33.7,29.85,WNW,292,6.0,6.5,87,0.00,,SKC,0.00,VWS V14.01,2013-02-16 06:28:00,
2013-02-16 01:29:00,37.2,33.7,29.85,NW,315,6.0,6.5,87,0.00,,SKC,0.00,VWS V14.01,2013-02-16 06:29:00,
2013-02-16 01:30:00,37.2,33.7,29.85,NW,315,6.5,6.5,87,0.00,,SKC,0.00,VWS V14.01,2013-02-16 06:30:00,
2013-02-16 01:31:00,37.2,33.7,29.85,WNW,292,5.8,6.5,87,0.00,,SKC,0.00,VWS V14.01,2013-02-16 06:31:00,
2013-02-16 01:32:00,37.0,33.5,29.85,NW,315,7.6,7.6,87,0.00,,SKC,0.00,VWS V14.01,2013-02-16 06:32:00,
2013-02-16 01:33:00,37.0,33.5,29.85,NW,315,7.6,7.6,87,0.00,,SKC,0.00,VWS V14.01,2013-02-16 06:33:00,
2013-02-16 01:34:00,37.0,33.5,29.85,WNW,292,8.5,8.5,87,0.00,,SKC,0.00,VWS V14.01,2013-02-16 06:34:00,
2013-02-16 01:35:00,37.0,33.5,29.85,NW,315,5.8,8.5,87,0.00,,SKC,0.00,VWS V14.01,2013-02-16 06:35:00,
2013-02-16 01:36:00,37.0,33.8,29.85,NW,315,6.0,8.5,88,0.00,,SKC,0.00,VWS V14.01,2013-02-16 06:36:00,
2013-02-16 01:37:00,37.0,33.8,29.85,NW,315,7.2,8.5,88,0.00,,SKC,0.00,VWS V14.01,2013-02-16 06:37:00,
2013-02-16 01:38:00,37.0,33.8,29.85,WNW,292,7.4,8.5,88,0.00,,SKC,0.00,VWS V14.01,2013-02-16 06:38:00,
2013-02-16 01:39:00,36.9,33.7,29.85,NW,315,5.8,8.5,88,0.00,,SKC,0.00,VWS V14.01,2013-02-16 06:39:00,
2013-02-16 01:40:00,36.9,33.7,29.85,West,270,5.6,8.5,88,0.00,,SKC,0.00,VWS V14.01,2013-02-16 06:40:00,
2013-02-16 01:41:00,36.9,33.7,29.85,NW,315,5.4,8.5,88,0.00,,SKC,0.00,VWS V14.01,2013-02-16 06:41:00,
2013-02-16 01:42:00,36.9,33.7,29.85,NW,315,6.0,8.5,88,0.00,,SKC,0.00,VWS V14.01,2013-02-16 06:42:00,
2013-02-16 01:43:00,36.9,33.7,29.82,NW,315,6.0,8.5,88,0.00,,SKC,0.00,VWS V14.01,2013-02-16 06:43:00,
2013-02-16 01:44:00,36.9,33.7,29.82,NW,315,6.3,8.5,88,0.00,,SKC,0.00,VWS V14.01,2013-02-16 06:44:00,
2013-02-16 01:46:00,36.9,33.9,29.82,NNW,338,5.8,8.5,89,0.00,,SKC,0.00,VWS V14.01,2013-02-16 06:46:00,
2013-02-16 01:47:00,36.9,33.9,29.82,North,0,4.3,8.5,89,0.00,,SKC,0.00,VWS V14.01,2013-02-16 06:47:00,
2013-02-16 01:48:00,36.9,33.9,29.82,NW,315,6.0,8.5,89,0.00,,SKC,0.00,VWS V14.01,2013-02-16 06:48:00,
2013-02-16 01:49:00,36.9,34.2,29.82,NNW,338,7.2,8.5,90,0.00,,SKC,0.00,VWS V14.01,2013-02-16 06:49:00,
2013-02-16 01:50:00,36.9,34.2,29.82,NW,315,5.6,8.5,90,0.00,,SKC,0.00,VWS V14.01,2013-02-16 06:50:00,
2013-02-16 01:51:00,36.9,34.5,29.82,NW,315,7.6,8.5,91,0.00,,SKC,0.00,VWS V14.01,2013-02-16 06:51:00,
2013-02-16 01:52:00,36.9,34.5,29.82,NW,315,6.9,8.5,91,0.00,,SKC,0.00,VWS V14.01,2013-02-16 06:52:00,
2013-02-16 01:53:00,36.9,34.8,29.82,NW,315,6.5,8.5,92,0.00,,SKC,0.00,VWS V14.01,2013-02-16 06:53:00,
2013-02-16 01:54:00,36.9,34.8,29.82,NNW,338,5.8,8.5,92,0.00,,SKC,0.00,VWS V14.01,2013-02-16 06:54:00,
2013-02-16 01:55:00,36.7,34.6,29.82,NW,315,7.4,7.6,92,0.00,,SKC,0.00,VWS V14.01,2013-02-16 06:55:00,
2013-02-16 01:56:00,36.7,34.6,29.82,NW,315,7.6,7.6,92,0.00,,SKC,0.00,VWS V14.01,2013-02-16 06:56:00,
2013-02-16 01:57:00,36.7,34.6,29.82,NW,315,6.5,7.6,92,0.00,,SKC,0.00,VWS V14.01,2013-02-16 06:57:00,
2013-02-16 01:58:00,36.7,34.6,29.85,NW,315,6.5,7.6,92,0.00,,SKC,0.00,VWS V14.01,2013-02-16 06:58:00,
2013-02-16 01:59:00,36.7,34.6,29.85,NW,315,8.7,8.7,92,0.00,,SKC,0.00,VWS V14.01,2013-02-16 06:59:00,
2013-02-16 02:00:00,36.7,34.6,29.85,NW,315,8.5,8.7,92,0.00,,SKC,0.00,VWS V14.01,2013-02-16 07:00:00,
2013-02-16 02:01:00,36.7,34.6,29.85,NW,315,7.4,8.7,92,0.00,,SKC,0.00,VWS V14.01,2013-02-16 07:01:00,
2013-02-16 02:02:00,36.7,34.6,29.85,NW,315,10.1,10.1,92,0.00,,SKC,0.00,VWS V14.01,2013-02-16 07:02:00,
2013-02-16 02:03:00,36.7,34.8,29.85,NW,315,4.7,10.1,93,0.00,,SKC,0.00,VWS V14.01,2013-02-16 07:03:00,
2013-02-16 02:04:00,36.7,34.8,29.85,NW,315,6.0,10.1,93,0.00,,SKC,0.00,VWS V14.01,2013-02-16 07:04:00,
2013-02-16 02:05:00,36.7,34.8,29.85,NNW,338,6.0,10.1,93,0.00,,SKC,0.00,VWS V14.01,2013-02-16 07:05:00,
2013-02-16 02:06:00,36.7,34.8,29.85,North,0,8.1,10.1,93,0.00,,SKC,0.00,VWS V14.01,2013-02-16 07:06:00,
2013-02-16 02:07:00,36.7,34.6,29.85,North,0,9.8,10.1,92,0.00,,SKC,0.00,VWS V14.01,2013-02-16 07:07:00,
2013-02-16 02:08:00,36.7,34.6,29.85,NW,315,8.1,10.1,92,0.00,,SKC,0.00,VWS V14.01,2013-02-16 07:08:00,
2013-02-16 02:09:00,36.7,34.6,29.85,NW,315,6.3,10.1,92,0.00,,SKC,0.00,VWS V14.01,2013-02-16 07:09:00,
2013-02-16 02:10:00,36.7,34.6,29.85,NW,315,8.1,10.1,92,0.00,,SKC,0.00,VWS V14.01,2013-02-16 07:10:00,
2013-02-16 02:11:00,36.7,34.3,29.85,North,0,8.5,10.1,91,0.00,,SKC,0.00,VWS V14.01,2013-02-16 07:11:00,
2013-02-16 02:12:00,36.7,34.3,29.85,NNW,338,7.6,10.1,91,0.00,,SKC,0.00,VWS V14.01,2013-02-16 07:12:00,
2013-02-16 02:13:00,36.7,34.3,29.85,NW,315,7.2,10.1,91,0.00,,SKC,0.00,VWS V14.01,2013-02-16 07:13:00,
2013-02-16 02:14:00,36.9,34.2,29.85,NNW,338,6.5,10.1,90,0.00,,SKC,0.00,VWS V14.01,2013-02-16 07:14:00,
2013-02-16 02:15:00,36.9,34.2,29.85,NNW,338,6.5,10.1,90,0.00,,SKC,0.00,VWS V14.01,2013-02-16 07:15:00,
2013-02-16 02:16:00,36.9,33.9,29.85,NNW,338,7.6,10.1,89,0.00,,SKC,0.00,VWS V14.01,2013-02-16 07:16:00,
2013-02-16 02:17:00,36.9,33.9,29.85,North,0,6.0,10.1,89,0.00,,SKC,0.00,VWS V14.01,2013-02-16 07:17:00,
2013-02-16 02:18:00,36.9,33.9,29.85,North,0,5.4,10.1,89,0.00,,SKC,0.00,VWS V14.01,2013-02-16 07:18:00,
2013-02-16 02:19:00,36.9,33.7,29.85,North,0,8.5,10.1,88,0.00,,SKC,0.00,VWS V14.01,2013-02-16 07:19:00,
2013-02-16 02:20:00,36.9,33.7,29.85,NW,315,8.1,10.1,88,0.00,,SKC,0.00,VWS V14.01,2013-02-16 07:20:00,
2013-02-16 02:21:00,36.9,33.7,29.85,NNW,338,9.4,10.1,88,0.00,,SKC,0.00,VWS V14.01,2013-02-16 07:21:00,
2013-02-16 02:22:00,36.9,33.4,29.85,North,0,8.1,9.8,87,0.00,,SKC,0.00,VWS V14.01,2013-02-16 07:22:00,
2013-02-16 02:23:00,36.9,33.4,29.85,North,0,8.1,9.8,87,0.00,,SKC,0.00,VWS V14.01,2013-02-16 07:23:00,
2013-02-16 02:24:00,37.0,33.2,29.85,NNW,338,8.7,9.8,86,0.00,,SKC,0.00,VWS V14.01,2013-02-16 07:24:00,
2013-02-16 02:25:00,37.0,33.2,29.85,North,0,5.4,9.8,86,0.00,,SKC,0.00,VWS V14.01,2013-02-16 07:25:00,
2013-02-16 02:26:00,37.0,33.0,29.85,NNW,338,5.8,9.8,85,0.00,,SKC,0.00,VWS V14.01,2013-02-16 07:26:00,
2013-02-16 02:27:00,37.0,33.0,29.85,North,0,8.7,9.4,85,0.00,,SKC,0.00,VWS V14.01,2013-02-16 07:27:00,
2013-02-16 02:28:00,37.0,33.0,29.85,North,0,4.9,9.4,85,0.00,,SKC,0.00,VWS V14.01,2013-02-16 07:28:00,
2013-02-16 02:29:00,37.0,33.0,29.85,NNW,338,8.1,9.4,85,0.00,,SKC,0.00,VWS V14.01,2013-02-16 07:29:00,
2013-02-16 02:30:00,37.0,32.7,29.85,North,0,6.0,9.4,84,0.00,,SKC,0.00,VWS V14.01,2013-02-16 07:30:00,
2013-02-16 02:31:00,37.0,32.7,29.85,NNW,338,4.3,9.4,84,0.00,,SKC,0.00,VWS V14.01,2013-02-16 07:31:00,
2013-02-16 02:32:00,37.0,32.7,29.85,North,0,7.8,9.4,84,0.00,,SKC,0.00,VWS V14.01,2013-02-16 07:32:00,
2013-02-16 02:33:00,37.0,32.7,29.85,NNW,338,6.5,9.4,84,0.00,,SKC,0.00,VWS V14.01,2013-02-16 07:33:00,
2013-02-16 02:34:00,37.0,32.7,29.85,North,0,5.4,9.4,84,0.00,,SKC,0.00,VWS V14.01,2013-02-16 07:34:00,
2013-02-16 02:35:00,37.0,32.7,29.85,North,0,7.6,9.4,84,0.00,,SKC,0.00,VWS V14.01,2013-02-16 07:35:00,
2013-02-16 02:36:00,37.0,32.7,29.85,NNW,338,6.5,9.4,84,0.00,,SKC,0.00,VWS V14.01,2013-02-16 07:36:00,
2013-02-16 02:37:00,37.0,32.4,29.85,North,0,7.4,9.4,83,0.00,,SKC,0.00,VWS V14.01,2013-02-16 07:37:00,
2013-02-16 02:38:00,37.0,32.4,29.85,NNW,338,5.6,9.4,83,0.00,,SKC,0.00,VWS V14.01,2013-02-16 07:38:00,
2013-02-16 02:39:00,37.0,32.4,29.85,North,0,8.5,9.4,83,0.00,,SKC,0.00,VWS V14.01,2013-02-16 07:39:00,
2013-02-16 02:40:00,37.0,32.1,29.85,North,0,3.8,9.4,82,0.00,,SKC,0.00,VWS V14.01,2013-02-16 07:40:00,
2013-02-16 02:41:00,37.0,32.1,29.85,North,0,6.0,8.7,82,0.00,,SKC,0.00,VWS V14.01,2013-02-16 07:41:00,
2013-02-16 02:42:00,37.0,32.1,29.85,NNE,22,9.6,9.6,82,0.00,,SKC,0.00,VWS V14.01,2013-02-16 07:42:00,
2013-02-16 02:43:00,37.0,31.8,29.82,NNW,338,10.7,10.7,81,0.00,,SKC,0.00,VWS V14.01,2013-02-16 07:43:00,
2013-02-16 02:44:00,37.0,31.8,29.82,NNE,22,10.3,10.7,81,0.00,,SKC,0.00,VWS V14.01,2013-02-16 07:44:00,
2013-02-16 02:45:00,37.0,31.8,29.82,NNW,338,13.0,13.0,81,0.00,,SKC,0.00,VWS V14.01,2013-02-16 07:45:00,
2013-02-16 02:46:00,37.0,31.5,29.82,NNW,338,6.0,13.0,80,0.00,,SKC,0.00,VWS V14.01,2013-02-16 07:46:00,
2013-02-16 02:47:00,37.0,31.5,29.82,North,0,7.4,13.0,80,0.00,,SKC,0.00,VWS V14.01,2013-02-16 07:47:00,
2013-02-16 02:48:00,37.0,31.1,29.82,North,0,11.0,13.0,79,0.00,,SKC,0.00,VWS V14.01,2013-02-16 07:48:00,
2013-02-16 02:49:00,37.0,31.1,29.82,North,0,10.3,13.0,79,0.00,,SKC,0.00,VWS V14.01,2013-02-16 07:49:00,
2013-02-16 02:50:00,37.0,30.8,29.82,North,0,6.7,13.0,78,0.00,,SKC,0.00,VWS V14.01,2013-02-16 07:50:00,
2013-02-16 02:51:00,36.9,30.6,29.82,North,0,7.2,13.0,78,0.00,,SKC,0.00,VWS V14.01,2013-02-16 07:51:00,
2013-02-16 02:52:00,36.9,30.6,29.82,NNW,338,10.1,13.0,78,0.00,,SKC,0.00,VWS V14.01,2013-02-16 07:52:00,
2013-02-16 02:53:00,36.9,30.6,29.82,North,0,9.8,13.0,78,0.00,,SKC,0.00,VWS V14.01,2013-02-16 07:53:00,
2013-02-16 02:54:00,36.9,30.6,29.82,North,0,6.0,13.0,78,0.00,,SKC,0.00,VWS V14.01,2013-02-16 07:54:00,
2013-02-16 02:55:00,36.9,30.6,29.82,NNW,338,7.2,13.0,78,0.00,,SKC,0.00,VWS V14.01,2013-02-16 07:55:00,
2013-02-16 02:56:00,36.9,30.6,29.82,North,0,8.7,13.0,78,0.00,,SKC,0.00,VWS V14.01,2013-02-16 07:56:00,
2013-02-16 02:57:00,36.9,30.6,29.82,NNW,338,5.4,13.0,78,0.00,,SKC,0.00,VWS V14.01,2013-02-16 07:57:00,
2013-02-16 02:58:00,36.9,30.6,29.85,North,0,7.4,13.0,78,0.00,,SKC,0.00,VWS V14.01,2013-02-16 07:58:00,
2013-02-16 02:59:00,36.9,30.6,29.85,NNW,338,7.4,13.0,78,0.00,,SKC,0.00,VWS V14.01,2013-02-16 07:59:00,
2013-02-16 03:00:00,36.9,30.6,29.85,NW,315,8.1,13.0,78,0.00,,SKC,0.00,VWS V14.01,2013-02-16 08:00:00,
2013-02-16 03:01:00,36.9,30.6,29.85,North,0,7.6,13.0,78,0.00,,SKC,0.00,VWS V14.01,2013-02-16 08:01:00,
2013-02-16 03:02:00,36.9,30.6,29.85,NNW,338,7.8,13.0,78,0.00,,SKC,0.00,VWS V14.01,2013-02-16 08:02:00,
2013-02-16 03:03:00,36.9,30.6,29.85,North,0,9.4,13.0,78,0.00,,SKC,0.00,VWS V14.01,2013-02-16 08:03:00,
2013-02-16 03:04:00,36.9,30.6,29.85,North,0,8.7,13.0,78,0.00,,SKC,0.00,VWS V14.01,2013-02-16 08:04:00,
2013-02-16 03:05:00,36.7,30.2,29.85,NNW,338,9.6,11.0,77,0.00,,SKC,0.00,VWS V14.01,2013-02-16 08:05:00,
2013-02-16 03:06:00,36.7,30.2,29.85,North,0,10.3,11.0,77,0.00,,SKC,0.00,VWS V14.01,2013-02-16 08:06:00,
2013-02-16 03:07:00,36.7,30.2,29.85,North,0,7.8,11.0,77,0.00,,SKC,0.00,VWS V14.01,2013-02-16 08:07:00,
2013-02-16 03:08:00,36.7,30.2,29.85,NNW,338,6.3,10.3,77,0.00,,SKC,0.00,VWS V14.01,2013-02-16 08:08:00,
2013-02-16 03:09:00,36.7,30.2,29.85,NNW,338,11.2,11.2,77,0.00,,SKC,0.00,VWS V14.01,2013-02-16 08:09:00,
2013-02-16 03:10:00,36.7,30.5,29.85,NW,315,8.1,11.2,78,0.00,,SKC,0.00,VWS V14.01,2013-02-16 08:10:00,
2013-02-16 03:11:00,36.7,30.5,29.85,NNW,338,6.5,11.2,78,0.00,,SKC,0.00,VWS V14.01,2013-02-16 08:11:00,
2013-02-16 03:12:00,36.7,30.5,29.85,North,0,10.3,11.2,78,0.00,,SKC,0.00,VWS V14.01,2013-02-16 08:12:00,
2013-02-16 03:13:00,36.7,30.5,29.85,NW,315,7.4,11.2,78,0.00,,SKC,0.00,VWS V14.01,2013-02-16 08:13:00,
2013-02-16 03:14:00,36.7,30.5,29.85,NNW,338,6.5,11.2,78,0.00,,SKC,0.00,VWS V14.01,2013-02-16 08:14:00,
2013-02-16 03:15:00,36.7,30.8,29.85,North,0,6.3,11.2,79,0.00,,SKC,0.00,VWS V14.01,2013-02-16 08:15:00,
2013-02-16 03:16:00,36.5,30.6,29.85,NNW,338,6.3,11.2,79,0.00,,SKC,0.00,VWS V14.01,2013-02-16 08:16:00,
2013-02-16 03:17:00,36.5,30.6,29.85,NNW,338,6.3,11.2,79,0.00,,SKC,0.00,VWS V14.01,2013-02-16 08:17:00,
2013-02-16 03:18:00,36.5,30.6,29.85,North,0,5.8,11.2,79,0.00,,SKC,0.00,VWS V14.01,2013-02-16 08:18:00,
2013-02-16 03:19:00,36.5,30.6,29.85,North,0,6.0,11.2,79,0.00,,SKC,0.00,VWS V14.01,2013-02-16 08:19:00,
2013-02-16 03:20:00,36.5,30.6,29.85,North,0,5.6,11.2,79,0.00,,SKC,0.00,VWS V14.01,2013-02-16 08:20:00,
2013-02-16 03:21:00,36.5,30.9,29.85,North,0,10.5,11.2,80,0.00,,SKC,0.00,VWS V14.01,2013-02-16 08:21:00,
2013-02-16 03:22:00,36.5,30.9,29.85,NNW,338,5.4,11.2,80,0.00,,SKC,0.00,VWS V14.01,2013-02-16 08:22:00,
2013-02-16 03:23:00,36.3,30.8,29.85,North,0,7.6,11.2,80,0.00,,SKC,0.00,VWS V14.01,2013-02-16 08:23:00,
2013-02-16 03:24:00,36.3,30.8,29.85,North,0,7.2,11.2,80,0.00,,SKC,0.00,VWS V14.01,2013-02-16 08:24:00,
2013-02-16 03:25:00,36.3,30.8,29.85,North,0,7.8,11.2,80,0.00,,SKC,0.00,VWS V14.01,2013-02-16 08:25:00,
2013-02-16 03:26:00,36.3,30.8,29.85,NNW,338,7.6,11.2,80,0.00,,SKC,0.00,VWS V14.01,2013-02-16 08:26:00,
2013-02-16 03:27:00,36.3,30.8,29.85,NNW,338,12.5,12.5,80,0.00,,SKC,0.00,VWS V14.01,2013-02-16 08:27:00,
2013-02-16 03:28:00,36.3,30.8,29.85,North,0,7.8,12.5,80,0.00,,SKC,0.00,VWS V14.01,2013-02-16 08:28:00,
2013-02-16 03:29:00,36.3,30.8,29.85,North,0,8.7,12.5,80,0.00,,SKC,0.00,VWS V14.01,2013-02-16 08:29:00,
2013-02-16 03:30:00,36.3,30.8,29.85,NNW,338,6.0,12.5,80,0.00,,SKC,0.00,VWS V14.01,2013-02-16 08:30:00,
2013-02-16 03:31:00,36.3,30.8,29.85,NW,315,7.4,12.5,80,0.00,,SKC,0.00,VWS V14.01,2013-02-16 08:31:00,
2013-02-16 03:32:00,36.3,30.8,29.85,NNW,338,5.8,12.5,80,0.00,,SKC,0.00,VWS V14.01,2013-02-16 08:32:00,
2013-02-16 03:34:00,36.1,30.6,29.85,NNW,338,8.7,12.5,80,0.00,,SKC,0.00,VWS V14.01,2013-02-16 08:34:00,
2013-02-16 03:35:00,36.1,30.6,29.85,North,0,7.6,12.5,80,0.00,,SKC,0.00,VWS V14.01,2013-02-16 08:35:00,
2013-02-16 03:36:00,36.1,30.6,29.85,NW,315,7.8,12.5,80,0.00,,SKC,0.00,VWS V14.01,2013-02-16 08:36:00,
2013-02-16 03:37:00,36.1,30.6,29.85,North,0,7.2,12.5,80,0.00,,SKC,0.00,VWS V14.01,2013-02-16 08:37:00,
2013-02-16 03:38:00,36.1,30.6,29.85,NNW,338,5.6,12.5,80,0.00,,SKC,0.00,VWS V14.01,2013-02-16 08:38:00,
2013-02-16 03:39:00,36.1,30.6,29.85,North,0,6.5,12.5,80,0.00,,SKC,0.00,VWS V14.01,2013-02-16 08:39:00,
2013-02-16 03:40:00,36.1,30.6,29.85,North,0,8.7,12.5,80,0.00,,SKC,0.00,VWS V14.01,2013-02-16 08:40:00,
2013-02-16 03:41:00,36.1,30.6,29.85,North,0,10.1,12.5,80,0.00,,SKC,0.00,VWS V14.01,2013-02-16 08:41:00,
2013-02-16 03:42:00,36.1,30.6,29.85,North,0,7.8,12.5,80,0.00,,SKC,0.00,VWS V14.01,2013-02-16 08:42:00,
2013-02-16 03:43:00,36.1,30.6,29.85,NNW,338,8.7,12.5,80,0.00,,SKC,0.00,VWS V14.01,2013-02-16 08:43:00,
2013-02-16 03:44:00,36.1,30.6,29.85,NW,315,8.1,12.5,80,0.00,,SKC,0.00,VWS V14.01,2013-02-16 08:44:00,
2013-02-16 03:45:00,36.0,30.4,29.85,North,0,10.7,12.5,80,0.00,,SKC,0.00,VWS V14.01,2013-02-16 08:45:00,
2013-02-16 03:46:00,36.0,30.4,29.85,NNE,22,5.8,12.5,80,0.00,,SKC,0.00,VWS V14.01,2013-02-16 08:46:00,
2013-02-16 03:47:00,36.0,30.4,29.85,North,0,6.0,12.5,80,0.00,,SKC,0.00,VWS V14.01,2013-02-16 08:47:00,
2013-02-16 03:48:00,36.0,30.4,29.85,North,0,10.1,10.7,80,0.00,,SKC,0.00,VWS V14.01,2013-02-16 08:48:00,
2013-02-16 03:49:00,36.0,30.4,29.85,North,0,7.6,10.7,80,0.00,,SKC,0.00,VWS V14.01,2013-02-16 08:49:00,
2013-02-16 03:50:00,35.8,30.2,29.85,NNW,338,12.3,12.3,80,0.00,,SKC,0.00,VWS V14.01,2013-02-16 08:50:00,
2013-02-16 03:51:00,35.8,30.2,29.85,North,0,5.6,12.3,80,0.00,,SKC,0.00,VWS V14.01,2013-02-16 08:51:00,
2013-02-16 03:52:00,35.8,30.2,29.85,NNW,338,7.6,12.3,80,0.00,,SKC,0.00,VWS V14.01,2013-02-16 08:52:00,
2013-02-16 03:53:00,35.8,30.5,29.85,North,0,8.1,12.3,81,0.00,,SKC,0.00,VWS V14.01,2013-02-16 08:53:00,
2013-02-16 03:54:00,35.8,30.5,29.85,North,0,8.7,12.3,81,0.00,,SKC,0.00,VWS V14.01,2013-02-16 08:54:00,
2013-02-16 03:55:00,35.8,30.5,29.85,North,0,9.8,12.3,81,0.00,,SKC,0.00,VWS V14.01,2013-02-16 08:55:00,
2013-02-16 03:56:00,35.8,30.5,29.85,North,0,8.5,12.3,81,0.00,,SKC,0.00,VWS V14.01,2013-02-16 08:56:00,
2013-02-16 03:57:00,35.8,30.5,29.85,North,0,6.7,12.3,81,0.00,,SKC,0.00,VWS V14.01,2013-02-16 08:57:00,
2013-02-16 03:58:00,35.8,30.5,29.85,North,0,6.3,12.3,81,0.00,,SKC,0.00,VWS V14.01,2013-02-16 08:58:00,
2013-02-16 04:00:00,35.8,30.5,29.85,NNE,22,9.8,12.3,81,0.00,,SKC,0.00,VWS V14.01,2013-02-16 09:00:00,
2013-02-16 04:01:00,35.8,30.5,29.85,NNE,22,7.6,12.3,81,0.00,,SKC,0.00,VWS V14.01,2013-02-16 09:01:00,
2013-02-16 04:02:00,35.8,30.8,29.85,NNW,338,10.3,12.3,82,0.00,,SKC,0.00,VWS V14.01,2013-02-16 09:02:00,
2013-02-16 04:03:00,35.8,30.8,29.85,North,0,7.8,12.3,82,0.00,,SKC,0.00,VWS V14.01,2013-02-16 09:03:00,
2013-02-16 04:04:00,35.8,30.8,29.85,NNW,338,9.6,12.3,82,0.00,,SKC,0.00,VWS V14.01,2013-02-16 09:04:00,
2013-02-16 04:05:00,35.8,30.8,29.85,North,0,6.5,12.3,82,0.00,,SKC,0.00,VWS V14.01,2013-02-16 09:05:00,
2013-02-16 04:06:00,35.6,30.7,29.85,North,0,6.5,12.3,82,0.00,,SKC,0.00,VWS V14.01,2013-02-16 09:06:00,
2013-02-16 04:07:00,35.6,30.7,29.85,NNW,338,7.8,12.3,82,0.00,,SKC,0.00,VWS V14.01,2013-02-16 09:07:00,
2013-02-16 04:08:00,35.6,30.7,29.85,North,0,9.0,12.3,82,0.00,,SKC,0.00,VWS V14.01,2013-02-16 09:08:00,
2013-02-16 04:09:00,35.6,30.7,29.85,NNW,338,7.4,12.3,82,0.00,,SKC,0.00,VWS V14.01,2013-02-16 09:09:00,
2013-02-16 04:10:00,35.6,30.7,29.85,North,0,9.8,12.3,82,0.00,,SKC,0.00,VWS V14.01,2013-02-16 09:10:00,
2013-02-16 04:11:00,35.6,30.7,29.85,NW,315,10.1,10.3,82,0.00,,SKC,0.00,VWS V14.01,2013-02-16 09:11:00,
2013-02-16 04:12:00,35.6,30.7,29.85,North,0,7.6,10.3,82,0.00,,SKC,0.00,VWS V14.01,2013-02-16 09:12:00,
2013-02-16 04:13:00,35.6,30.7,29.82,North,0,5.4,10.3,82,0.00,,SKC,0.00,VWS V14.01,2013-02-16 09:13:00,
2013-02-16 04:14:00,35.6,30.7,29.82,North,0,8.7,10.3,82,0.00,,SKC,0.00,VWS V14.01,2013-02-16 09:14:00,
2013-02-16 04:15:00,35.6,30.7,29.82,North,0,7.2,10.3,82,0.00,,SKC,0.00,VWS V14.01,2013-02-16 09:15:00,
2013-02-16 04:16:00,35.6,30.7,29.82,NNW,338,7.8,10.3,82,0.00,,SKC,0.00,VWS V14.01,2013-02-16 09:16:00,
2013-02-16 04:17:00,35.6,30.7,29.82,North,0,10.5,10.5,82,0.00,,SKC,0.00,VWS V14.01,2013-02-16 09:17:00,
2013-02-16 04:18:00,35.6,30.7,29.82,North,0,8.1,10.5,82,0.00,,SKC,0.00,VWS V14.01,2013-02-16 09:18:00,
2013-02-16 04:19:00,35.6,31.0,29.82,North,0,7.2,10.5,83,0.00,,SKC,0.00,VWS V14.01,2013-02-16 09:19:00,
2013-02-16 04:20:00,35.6,31.0,29.82,NW,315,6.3,10.5,83,0.00,,SKC,0.00,VWS V14.01,2013-02-16 09:20:00,
2013-02-16 04:21:00,35.6,31.0,29.82,North,0,9.8,10.5,83,0.00,,SKC,0.00,VWS V14.01,2013-02-16 09:21:00,
2013-02-16 04:22:00,35.6,31.0,29.82,NNE,22,7.8,10.5,83,0.00,,SKC,0.00,VWS V14.01,2013-02-16 09:22:00,
2013-02-16 04:23:00,35.6,31.0,29.82,NNW,338,9.8,10.5,83,0.00,,SKC,0.00,VWS V14.01,2013-02-16 09:23:00,
2013-02-16 04:24:00,35.4,30.8,29.82,North,0,5.8,10.5,83,0.00,,SKC,0.00,VWS V14.01,2013-02-16 09:24:00,
2013-02-16 04:25:00,35.4,30.8,29.82,North,0,8.7,10.5,83,0.00,,SKC,0.00,VWS V14.01,2013-02-16 09:25:00,
2013-02-16 04:27:00,35.4,30.8,29.82,North,0,9.8,10.5,83,0.00,,SKC,0.00,VWS V14.01,2013-02-16 09:27:00,
2013-02-16 04:28:00,35.4,30.8,29.85,North,0,7.8,10.5,83,0.00,,SKC,0.00,VWS V14.01,2013-02-16 09:28:00,
2013-02-16 04:29:00,35.4,30.8,29.85,NNW,338,7.8,10.5,83,0.00,,SKC,0.00,VWS V14.01,2013-02-16 09:29:00,
2013-02-16 04:30:00,35.4,30.8,29.85,North,0,6.3,10.5,83,0.00,,SKC,0.00,VWS V14.01,2013-02-16 09:30:00,
2013-02-16 04:31:00,35.4,30.8,29.85,NNW,338,6.3,10.5,83,0.00,,SKC,0.00,VWS V14.01,2013-02-16 09:31:00,
2013-02-16 04:32:00,35.4,30.8,29.85,North,0,9.8,10.5,83,0.00,,SKC,0.00,VWS V14.01,2013-02-16 09:32:00,
2013-02-16 04:33:00,35.4,31.1,29.85,NNW,338,5.4,10.5,84,0.00,,SKC,0.00,VWS V14.01,2013-02-16 09:33:00,
2013-02-16 04:34:00,35.4,31.1,29.85,North,0,7.4,10.5,84,0.00,,SKC,0.00,VWS V14.01,2013-02-16 09:34:00,
2013-02-16 04:35:00,35.4,31.1,29.85,NNW,338,7.4,10.5,84,0.00,,SKC,0.00,VWS V14.01,2013-02-16 09:35:00,
2013-02-16 04:36:00,35.4,31.1,29.85,NW,315,6.5,10.5,84,0.00,,SKC,0.00,VWS V14.01,2013-02-16 09:36:00,
2013-02-16 04:37:00,35.4,31.1,29.85,NNE,22,8.5,10.5,84,0.00,,SKC,0.00,VWS V14.01,2013-02-16 09:37:00,
2013-02-16 04:38:00,35.4,31.1,29.85,North,0,10.1,10.1,84,0.00,,SKC,0.00,VWS V14.01,2013-02-16 09:38:00,
2013-02-16 04:39:00,35.4,31.1,29.85,NNW,338,8.1,10.1,84,0.00,,SKC,0.00,VWS V14.01,2013-02-16 09:39:00,
2013-02-16 04:40:00,35.4,31.1,29.85,North,0,8.1,10.1,84,0.00,,SKC,0.00,VWS V14.01,2013-02-16 09:40:00,
2013-02-16 04:41:00,35.4,31.1,29.85,North,0,8.5,10.1,84,0.00,,SKC,0.00,VWS V14.01,2013-02-16 09:41:00,
2013-02-16 04:42:00,35.2,30.9,29.85,NNW,338,10.1,10.1,84,0.00,,SKC,0.00,VWS V14.01,2013-02-16 09:42:00,
2013-02-16 04:43:00,35.2,30.9,29.85,NNW,338,9.6,10.1,84,0.00,,SKC,0.00,VWS V14.01,2013-02-16 09:43:00,
2013-02-16 04:44:00,35.2,30.9,29.85,North,0,11.0,11.0,84,0.00,,SKC,0.00,VWS V14.01,2013-02-16 09:44:00,
2013-02-16 04:45:00,35.2,30.9,29.85,North,0,7.6,11.0,84,0.00,,SKC,0.00,VWS V14.01,2013-02-16 09:45:00,
2013-02-16 04:46:00,35.2,30.9,29.85,North,0,10.7,11.0,84,0.00,,SKC,0.00,VWS V14.01,2013-02-16 09:46:00,
2013-02-16 04:47:00,35.2,30.9,29.85,North,0,7.8,11.0,84,0.00,,SKC,0.00,VWS V14.01,2013-02-16 09:47:00,
2013-02-16 04:48:00,35.2,31.2,29.85,NNW,338,7.6,11.0,85,0.00,,SKC,0.00,VWS V14.01,2013-02-16 09:48:00,
2013-02-16 04:49:00,35.2,31.2,29.85,NNE,22,7.8,11.0,85,0.00,,SKC,0.00,VWS V14.01,2013-02-16 09:49:00,
2013-02-16 04:50:00,35.2,31.2,29.85,North,0,7.8,11.0,85,0.00,,SKC,0.00,VWS V14.01,2013-02-16 09:50:00,
2013-02-16 04:51:00,35.2,31.2,29.85,North,0,10.5,11.0,85,0.00,,SKC,0.00,VWS V14.01,2013-02-16 09:51:00,
2013-02-16 04:52:00,35.1,31.0,29.85,North,0,6.5,11.0,85,0.00,,SKC,0.00,VWS V14.01,2013-02-16 09:52:00,
2013-02-16 04:53:00,35.1,31.0,29.85,North,0,9.8,11.0,85,0.00,,SKC,0.00,VWS V14.01,2013-02-16 09:53:00,
2013-02-16 04:54:00,35.1,31.0,29.85,NNE,22,5.6,11.0,85,0.00,,SKC,0.00,VWS V14.01,2013-02-16 09:54:00,
2013-02-16 04:55:00,35.1,31.0,29.85,North,0,6.5,11.0,85,0.00,,SKC,0.00,VWS V14.01,2013-02-16 09:55:00,
2013-02-16 04:56:00,35.1,31.0,29.85,North,0,7.6,11.0,85,0.00,,SKC,0.00,VWS V14.01,2013-02-16 09:56:00,
2013-02-16 04:57:00,35.1,31.0,29.85,North,0,7.8,11.0,85,0.00,,SKC,0.00,VWS V14.01,2013-02-16 09:57:00,
2013-02-16 04:58:00,35.1,31.0,29.85,North,0,10.7,11.0,85,0.00,,SKC,0.00,VWS V14.01,2013-02-16 09:58:00,
2013-02-16 04:59:00,35.1,31.3,29.85,North,0,9.8,11.0,86,0.00,,SKC,0.00,VWS V14.01,2013-02-16 09:59:00,
2013-02-16 05:00:00,35.1,31.3,29.85,North,0,6.0,11.0,86,0.00,,SKC,0.00,VWS V14.01,2013-02-16 10:00:00,
2013-02-16 05:01:00,35.1,31.3,29.85,North,0,7.8,11.0,86,0.00,,SKC,0.00,VWS V14.01,2013-02-16 10:01:00,
2013-02-16 05:02:00,35.1,31.3,29.85,NNE,22,7.8,11.0,86,0.00,,SKC,0.00,VWS V14.01,2013-02-16 10:02:00,
2013-02-16 05:03:00,35.1,31.3,29.85,North,0,6.3,11.0,86,0.00,,SKC,0.00,VWS V14.01,2013-02-16 10:03:00,
2013-02-16 05:04:00,35.1,31.3,29.85,NNE,22,7.2,10.7,86,0.00,,SKC,0.00,VWS V14.01,2013-02-16 10:04:00,
2013-02-16 05:05:00,35.1,31.3,29.85,North,0,10.3,10.7,86,0.00,,SKC,0.00,VWS V14.01,2013-02-16 10:05:00,
2013-02-16 05:06:00,35.1,31.3,29.85,North,0,8.1,10.7,86,0.00,,SKC,0.00,VWS V14.01,2013-02-16 10:06:00,
2013-02-16 05:07:00,35.1,31.3,29.85,North,0,7.8,10.7,86,0.00,,SKC,0.00,VWS V14.01,2013-02-16 10:07:00,
2013-02-16 05:08:00,35.1,31.0,29.85,NNE,22,6.5,10.7,85,0.00,,SKC,0.00,VWS V14.01,2013-02-16 10:08:00,
2013-02-16 05:09:00,35.1,31.0,29.85,North,0,7.6,10.7,85,0.00,,SKC,0.00,VWS V14.01,2013-02-16 10:09:00,
2013-02-16 05:10:00,35.1,31.3,29.85,North,0,8.5,10.7,86,0.00,,SKC,0.00,VWS V14.01,2013-02-16 10:10:00,
2013-02-16 05:11:00,35.1,31.3,29.85,NNE,22,7.4,10.7,86,0.00,,SKC,0.00,VWS V14.01,2013-02-16 10:11:00,
2013-02-16 05:12:00,35.1,31.3,29.85,North,0,5.6,10.7,86,0.00,,SKC,0.00,VWS V14.01,2013-02-16 10:12:00,
2013-02-16 05:13:00,35.1,31.3,29.82,North,0,8.5,10.7,86,0.00,,SKC,0.00,VWS V14.01,2013-02-16 10:13:00,
2013-02-16 05:14:00,35.1,31.3,29.82,North,0,9.0,10.7,86,0.00,,SKC,0.00,VWS V14.01,2013-02-16 10:14:00,
2013-02-16 05:15:00,35.1,31.3,29.82,NNW,338,12.8,12.8,86,0.00,,SKC,0.00,VWS V14.01,2013-02-16 10:15:00,
2013-02-16 05:16:00,35.1,31.3,29.82,NNW,338,12.8,12.8,86,0.00,,SKC,0.00,VWS V14.01,2013-02-16 10:16:00,
2013-02-16 05:17:00,35.1,31.3,29.82,NNW,338,12.8,12.8,86,0.00,,SKC,0.00,VWS V14.01,2013-02-16 10:17:00,
2013-02-16 05:18:00,34.9,30.8,29.82,NNW,338,12.8,12.8,85,0.00,,SKC,0.00,VWS V14.01,2013-02-16 10:18:00,
2013-02-16 05:19:00,34.9,30.8,29.82,NNW,338,12.8,12.8,85,0.00,,SKC,0.00,VWS V14.01,2013-02-16 10:19:00,
2013-02-16 05:20:00,34.9,30.8,29.82,NNW,338,12.8,12.8,85,0.00,,SKC,0.00,VWS V14.01,2013-02-16 10:20:00,
2013-02-16 05:21:00,34.9,30.8,29.82,NNW,338,12.8,12.8,85,0.00,,SKC,0.00,VWS V14.01,2013-02-16 10:21:00,
2013-02-16 05:22:00,34.9,30.8,29.82,NNW,338,12.8,12.8,85,0.00,,SKC,0.00,VWS V14.01,2013-02-16 10:22:00,
2013-02-16 05:23:00,34.9,30.8,29.82,NNW,338,12.8,12.8,85,0.00,,SKC,0.00,VWS V14.01,2013-02-16 10:23:00,
2013-02-16 05:24:00,34.9,30.8,29.82,North,0,8.1,12.8,85,0.00,,SKC,0.00,VWS V14.01,2013-02-16 10:24:00,
2013-02-16 05:25:00,34.9,30.8,29.82,North,0,8.1,12.8,85,0.00,,SKC,0.00,VWS V14.01,2013-02-16 10:25:00,
2013-02-16 05:26:00,34.9,30.8,29.82,NNW,338,10.7,12.8,85,0.00,,SKC,0.00,VWS V14.01,2013-02-16 10:26:00,
2013-02-16 05:27:00,34.9,31.1,29.82,NNW,338,10.7,12.8,86,0.00,,SKC,0.00,VWS V14.01,2013-02-16 10:27:00,
2013-02-16 05:28:00,34.9,31.1,29.85,NNW,338,10.7,12.8,86,0.00,,SKC,0.00,VWS V14.01,2013-02-16 10:28:00,
2013-02-16 05:29:00,34.9,31.1,29.85,NNW,338,10.7,12.8,86,0.00,,SKC,0.00,VWS V14.01,2013-02-16 10:29:00,
2013-02-16 05:30:00,34.9,31.1,29.85,NNW,338,10.7,12.8,86,0.00,,SKC,0.00,VWS V14.01,2013-02-16 10:30:00,
2013-02-16 05:31:00,34.9,31.1,29.85,NNW,338,10.7,12.8,86,0.00,,SKC,0.00,VWS V14.01,2013-02-16 10:31:00,
2013-02-16 05:32:00,34.9,31.1,29.85,NNW,338,10.7,12.8,86,0.00,,SKC,0.00,VWS V14.01,2013-02-16 10:32:00,
2013-02-16 05:33:00,34.9,31.1,29.85,NNW,338,10.7,12.8,86,0.00,,SKC,0.00,VWS V14.01,2013-02-16 10:33:00,
2013-02-16 05:34:00,34.9,31.1,29.85,NNW,338,10.7,12.8,86,0.00,,SKC,0.00,VWS V14.01,2013-02-16 10:34:00,
2013-02-16 05:35:00,34.9,31.1,29.85,North,0,7.2,12.8,86,0.00,,SKC,0.00,VWS V14.01,2013-02-16 10:35:00,
2013-02-16 05:36:00,34.9,31.1,29.85,North,0,7.2,12.8,86,0.00,,SKC,0.00,VWS V14.01,2013-02-16 10:36:00,
2013-02-16 05:37:00,34.9,31.1,29.85,North,0,7.2,12.8,86,0.00,,SKC,0.00,VWS V14.01,2013-02-16 10:37:00,
2013-02-16 05:38:00,34.9,31.1,29.85,North,0,7.2,12.8,86,0.00,,SKC,0.00,VWS V14.01,2013-02-16 10:38:00,
2013-02-16 05:39:00,34.9,31.1,29.85,North,0,7.2,12.8,86,0.00,,SKC,0.00,VWS V14.01,2013-02-16 10:39:00,
2013-02-16 05:40:00,34.9,31.1,29.85,North,0,7.2,12.8,86,0.00,,SKC,0.00,VWS V14.01,2013-02-16 10:40:00,
2013-02-16 05:41:00,34.9,31.1,29.85,North,0,7.2,12.8,86,0.00,,SKC,0.00,VWS V14.01,2013-02-16 10:41:00,
2013-02-16 05:42:00,34.9,31.1,29.85,North,0,7.2,12.8,86,0.00,,SKC,0.00,VWS V14.01,2013-02-16 10:42:00,
2013-02-16 05:43:00,34.9,31.1,29.85,North,0,7.2,10.7,86,0.00,,SKC,0.00,VWS V14.01,2013-02-16 10:43:00,
2013-02-16 05:44:00,34.9,31.1,29.85,North,0,7.2,10.7,86,0.00,,SKC,0.00,VWS V14.01,2013-02-16 10:44:00,
2013-02-16 05:45:00,34.9,31.1,29.85,North,0,7.2,10.7,86,0.00,,SKC,0.00,VWS V14.01,2013-02-16 10:45:00,
2013-02-16 05:46:00,34.9,31.1,29.85,North,0,7.2,10.7,86,0.00,,SKC,0.00,VWS V14.01,2013-02-16 10:46:00,
2013-02-16 05:47:00,34.9,31.1,29.85,North,0,7.2,10.7,86,0.00,,SKC,0.00,VWS V14.01,2013-02-16 10:47:00,
2013-02-16 05:48:00,34.9,31.1,29.85,North,0,7.2,10.7,86,0.00,,SKC,0.00,VWS V14.01,2013-02-16 10:48:00,
2013-02-16 05:49:00,34.9,31.1,29.85,North,0,7.2,10.7,86,0.00,,SKC,0.00,VWS V14.01,2013-02-16 10:49:00,
2013-02-16 05:50:00,34.9,31.1,29.85,North,0,7.2,10.7,86,0.00,,SKC,0.00,VWS V14.01,2013-02-16 10:50:00,
2013-02-16 05:51:00,34.9,31.1,29.85,North,0,7.2,10.7,86,0.00,,SKC,0.00,VWS V14.01,2013-02-16 10:51:00,
2013-02-16 05:52:00,34.9,31.1,29.85,North,0,7.2,10.7,86,0.00,,SKC,0.00,VWS V14.01,2013-02-16 10:52:00,
2013-02-16 05:53:00,34.9,31.1,29.85,North,0,7.2,10.7,86,0.00,,SKC,0.00,VWS V14.01,2013-02-16 10:53:00,
2013-02-16 05:54:00,34.9,31.1,29.85,North,0,7.2,7.2,86,0.00,,SKC,0.00,VWS V14.01,2013-02-16 10:54:00,
2013-02-16 05:55:00,34.9,31.1,29.85,North,0,7.2,7.2,86,0.00,,SKC,0.00,VWS V14.01,2013-02-16 10:55:00,
2013-02-16 05:56:00,34.9,31.1,29.85,North,0,7.2,7.2,86,0.00,,SKC,0.00,VWS V14.01,2013-02-16 10:56:00,
2013-02-16 05:57:00,34.9,31.1,29.85,North,0,7.2,7.2,86,0.00,,SKC,0.00,VWS V14.01,2013-02-16 10:57:00,
2013-02-16 05:58:00,34.9,31.1,29.88,North,0,7.2,7.2,86,0.00,,SKC,0.00,VWS V14.01,2013-02-16 10:58:00,
2013-02-16 05:59:00,34.9,31.1,29.88,North,0,6.5,7.2,86,0.00,,SKC,0.00,VWS V14.01,2013-02-16 10:59:00,
2013-02-16 06:00:00,34.9,31.1,29.88,North,0,6.5,7.2,86,0.00,,SKC,0.00,VWS V14.01,2013-02-16 11:00:00,
2013-02-16 06:02:00,34.9,31.1,29.88,North,0,6.5,7.2,86,0.00,,SKC,0.00,VWS V14.01,2013-02-16 11:02:00,
2013-02-16 06:04:00,34.9,31.1,29.88,North,0,6.5,7.2,86,0.00,,SKC,0.00,VWS V14.01,2013-02-16 11:04:00,
2013-02-16 06:06:00,34.9,31.1,29.88,North,0,6.5,7.2,86,0.00,,SKC,0.00,VWS V14.01,2013-02-16 11:06:00,
2013-02-16 06:08:00,34.9,31.1,29.88,North,0,6.5,6.5,86,0.00,,SKC,0.00,VWS V14.01,2013-02-16 11:08:00,
2013-02-16 06:10:00,34.3,30.9,29.88,North,0,6.5,6.5,87,0.00,,SKC,0.00,VWS V14.01,2013-02-16 11:10:00,
2013-02-16 06:12:00,34.3,30.9,29.88,North,0,6.5,6.5,87,0.00,,SKC,0.00,VWS V14.01,2013-02-16 11:12:00,
2013-02-16 06:14:00,34.3,30.9,29.88,North,0,6.5,6.5,87,0.00,,SKC,0.00,VWS V14.01,2013-02-16 11:14:00,
2013-02-16 06:16:00,34.3,30.9,29.88,North,0,6.5,6.5,87,0.00,,SKC,0.00,VWS V14.01,2013-02-16 11:16:00,
2013-02-16 06:18:00,34.2,31.0,29.88,NNW,338,4.0,6.5,88,0.00,,SKC,0.00,VWS V14.01,2013-02-16 11:18:00,
2013-02-16 06:20:00,34.2,31.0,29.88,NNW,338,4.0,4.0,88,0.00,,SKC,0.00,VWS V14.01,2013-02-16 11:20:00,
2013-02-16 06:22:00,34.2,31.0,29.88,NNW,338,4.0,4.0,88,0.00,,SKC,0.00,VWS V14.01,2013-02-16 11:22:00,
2013-02-16 06:24:00,34.2,31.0,29.88,NNW,338,4.0,4.0,88,0.00,,SKC,0.00,VWS V14.01,2013-02-16 11:24:00,
2013-02-16 06:26:00,34.2,31.0,29.88,NNW,338,4.0,4.0,88,0.00,,SKC,0.00,VWS V14.01,2013-02-16 11:26:00,
2013-02-16 06:28:00,34.2,31.0,29.88,NNW,338,4.0,4.0,88,0.00,,SKC,0.00,VWS V14.01,2013-02-16 11:28:00,
2013-02-16 06:30:00,34.2,31.0,29.88,NNW,338,4.0,4.0,88,0.00,,SKC,0.00,VWS V14.01,2013-02-16 11:30:00,
2013-02-16 06:32:00,34.2,31.0,29.88,North,0,11.0,11.0,88,0.00,,SKC,0.00,VWS V14.01,2013-02-16 11:32:00,
2013-02-16 06:34:00,34.2,31.0,29.88,North,0,6.5,11.0,88,0.00,,SKC,0.00,VWS V14.01,2013-02-16 11:34:00,
2013-02-16 06:36:00,34.2,31.0,29.88,North,0,9.6,9.6,88,0.00,,SKC,0.00,VWS V14.01,2013-02-16 11:36:00,
2013-02-16 06:38:00,34.2,31.0,29.88,North,0,9.6,9.6,88,0.00,,SKC,0.00,VWS V14.01,2013-02-16 11:38:00,
2013-02-16 06:40:00,34.2,31.0,29.88,NNW,338,7.6,9.6,88,0.00,,SKC,0.00,VWS V14.01,2013-02-16 11:40:00,
2013-02-16 06:42:00,34.2,31.0,29.88,NNW,338,7.6,7.6,88,0.00,,SKC,0.00,VWS V14.01,2013-02-16 11:42:00,
2013-02-16 06:44:00,34.2,31.0,29.88,NNW,338,10.5,10.5,88,0.00,,SKC,0.00,VWS V14.01,2013-02-16 11:44:00,
2013-02-16 06:46:00,34.2,31.0,29.88,NNW,338,10.5,10.5,88,0.00,,SKC,0.00,VWS V14.01,2013-02-16 11:46:00,
2013-02-16 06:48:00,34.2,31.0,29.88,NNW,338,10.5,10.5,88,0.00,,SKC,0.00,VWS V14.01,2013-02-16 11:48:00,
2013-02-16 06:50:00,34.2,31.0,29.88,NNW,338,10.5,10.5,88,0.00,,SKC,0.00,VWS V14.01,2013-02-16 11:50:00,
2013-02-16 06:52:00,34.2,31.0,29.88,NNW,338,10.5,10.5,88,0.00,,SKC,0.00,VWS V14.01,2013-02-16 11:52:00,
2013-02-16 06:54:00,34.2,31.0,29.88,NNW,338,10.5,10.5,88,0.00,,SKC,0.00,VWS V14.01,2013-02-16 11:54:00,
2013-02-16 06:56:00,34.2,31.0,29.88,NNW,338,10.5,10.5,88,0.00,,SKC,0.00,VWS V14.01,2013-02-16 11:56:00,
2013-02-16 06:58:00,34.2,31.0,29.88,NNW,338,10.5,10.5,88,0.00,,SKC,0.00,VWS V14.01,2013-02-16 11:58:00,
2013-02-16 07:00:00,34.5,30.8,29.88,NNW,338,10.5,10.5,86,0.00,,SKC,0.00,VWS V14.01,2013-02-16 12:00:00,
2013-02-16 07:02:00,34.5,30.8,29.88,NNW,338,10.5,10.5,86,0.00,,SKC,0.00,VWS V14.01,2013-02-16 12:02:00,
2013-02-16 07:04:00,34.5,30.8,29.88,NNW,338,10.5,10.5,86,0.00,,SKC,0.00,VWS V14.01,2013-02-16 12:04:00,
2013-02-16 07:06:00,34.9,31.1,29.88,North,0,6.5,7.2,86,0.00,,SKC,0.00,VWS V14.01,2013-02-16 12:06:00,
2013-02-16 07:07:00,34.9,31.1,29.88,North,0,6.5,6.5,86,0.00,,SKC,0.00,VWS V14.01,2013-02-16 12:07:00,
2013-02-16 07:08:00,34.5,30.8,29.88,NNW,338,10.5,10.5,86,0.00,,SKC,0.00,VWS V14.01,2013-02-16 12:08:00,
2013-02-16 07:10:00,34.5,30.8,29.88,NNW,338,10.5,10.5,86,0.00,,SKC,0.00,VWS V14.01,2013-02-16 12:10:00,
2013-02-16 07:12:00,34.3,30.9,29.88,North,0,6.5,6.5,87,0.00,,SKC,0.00,VWS V14.01,2013-02-16 12:12:00,
2013-02-16 07:14:00,34.7,30.4,29.88,NNW,338,10.5,10.5,84,0.00,,SKC,0.00,VWS V14.01,2013-02-16 12:14:00,
2013-02-16 07:16:00,34.7,30.4,29.88,NNW,338,10.5,10.5,84,0.00,,SKC,0.00,VWS V14.01,2013-02-16 12:16:00,
2013-02-16 07:17:00,34.2,31.0,29.88,NNW,338,4.0,6.5,88,0.00,,SKC,0.00,VWS V14.01,2013-02-16 12:17:00,
2013-02-16 07:18:00,34.7,30.1,29.88,NNW,338,10.5,10.5,83,0.00,,SKC,0.00,VWS V14.01,2013-02-16 12:18:00,
2013-02-16 07:20:00,34.7,30.1,29.88,NNW,338,10.5,10.5,83,0.00,,SKC,0.00,VWS V14.01,2013-02-16 12:20:00,
2013-02-16 07:22:00,34.2,31.0,29.88,NNW,338,4.0,4.0,88,0.00,,SKC,0.00,VWS V14.01,2013-02-16 12:22:00,
2013-02-16 07:24:00,34.7,30.1,29.88,NNW,338,10.5,10.5,83,0.00,,SKC,0.00,VWS V14.01,2013-02-16 12:24:00,
2013-02-16 07:26:00,34.9,30.2,29.88,NNW,338,10.5,10.5,83,0.00,,SKC,0.00,VWS V14.01,2013-02-16 12:26:00,
2013-02-16 07:27:00,34.2,31.0,29.88,NNW,338,4.0,4.0,88,0.00,,SKC,0.00,VWS V14.01,2013-02-16 12:27:00,
2013-02-16 07:28:00,34.9,30.2,29.88,NNW,338,10.5,10.5,83,0.00,,SKC,0.00,VWS V14.01,2013-02-16 12:28:00,
2013-02-16 07:30:00,34.9,30.2,29.85,NNW,338,10.5,10.5,83,0.00,,SKC,0.00,VWS V14.01,2013-02-16 12:30:00,
2013-02-16 07:32:00,34.2,31.0,29.88,North,0,11.0,11.0,88,0.00,,SKC,0.00,VWS V14.01,2013-02-16 12:32:00,
2013-02-16 07:34:00,35.2,30.3,29.85,NNW,338,10.5,10.5,82,0.00,,SKC,0.00,VWS V14.01,2013-02-16 12:34:00,
2013-02-16 07:36:00,35.2,30.3,29.85,NNW,338,10.5,10.5,82,0.00,,SKC,0.00,VWS V14.01,2013-02-16 12:36:00,
2013-02-16 07:37:00,34.2,31.0,29.88,North,0,9.6,9.6,88,0.00,,SKC,0.00,VWS V14.01,2013-02-16 12:37:00,
2013-02-16 07:38:00,35.2,30.3,29.85,NNW,338,10.5,10.5,82,0.00,,SKC,0.00,VWS V14.01,2013-02-16 12:38:00,
2013-02-16 07:40:00,35.6,30.7,29.85,NNW,338,10.5,10.5,82,0.00,,SKC,0.00,VWS V14.01,2013-02-16 12:40:00,
2013-02-16 07:42:00,34.2,31.0,29.88,NNW,338,7.6,7.6,88,0.00,,SKC,0.00,VWS V14.01,2013-02-16 12:42:00,
2013-02-16 07:44:00,35.8,30.8,29.85,NNW,338,10.5,10.5,82,0.00,,SKC,0.00,VWS V14.01,2013-02-16 12:44:00,
2013-02-16 07:46:00,35.8,30.8,29.85,NNW,338,10.5,10.5,82,0.00,,SKC,0.00,VWS V14.01,2013-02-16 12:46:00,
2013-02-16 07:47:00,34.2,31.0,29.88,NNW,338,10.5,10.5,88,0.00,,SKC,0.00,VWS V14.01,2013-02-16 12:47:00,
2013-02-16 07:48:00,35.8,30.8,29.85,NNW,338,10.5,10.5,82,0.00,,SKC,0.00,VWS V14.01,2013-02-16 12:48:00,
2013-02-16 07:50:00,35.8,30.8,29.85,NNE,22,10.1,10.5,82,0.00,,SKC,0.00,VWS V14.01,2013-02-16 12:50:00,
2013-02-16 07:52:00,34.2,31.0,29.88,NNW,338,10.5,10.5,88,0.00,,SKC,0.00,VWS V14.01,2013-02-16 12:52:00,
2013-02-16 07:54:00,36.5,30.9,29.85,NNE,22,10.1,10.1,80,0.00,,SKC,0.00,VWS V14.01,2013-02-16 12:54:00,
2013-02-16 07:56:00,36.5,30.9,29.85,NNE,22,10.1,10.1,80,0.00,,SKC,0.00,VWS V14.01,2013-02-16 12:56:00,
2013-02-16 07:57:00,34.2,31.0,29.88,NNW,338,10.5,10.5,88,0.00,,SKC,0.00,VWS V14.01,2013-02-16 12:57:00,
2013-02-16 07:58:00,36.9,31.0,29.85,NNE,22,10.1,10.1,79,0.00,,SKC,0.00,VWS V14.01,2013-02-16 12:58:00,
2013-02-16 08:00:00,36.9,31.0,29.85,NNE,22,10.1,10.1,79,0.00,,SKC,0.00,VWS V14.01,2013-02-16 13:00:00,
2013-02-16 08:02:00,34.5,30.8,29.88,NNW,338,10.5,10.5,86,0.00,,SKC,0.00,VWS V14.01,2013-02-16 13:02:00,
2013-02-16 08:04:00,36.9,30.0,29.85,NNE,22,10.1,10.1,76,0.00,,SKC,0.00,VWS V14.01,2013-02-16 13:04:00,
2013-02-16 08:06:00,36.9,30.0,29.85,NNE,22,10.1,10.1,76,0.00,,SKC,0.00,VWS V14.01,2013-02-16 13:06:00,
2013-02-16 08:07:00,34.5,30.8,29.88,NNW,338,10.5,10.5,86,0.00,,SKC,0.00,VWS V14.01,2013-02-16 13:07:00,
2013-02-16 08:08:00,36.7,29.5,29.85,NNE,22,10.1,10.1,75,0.00,,SKC,0.00,VWS V14.01,2013-02-16 13:08:00,
2013-02-16 08:10:00,36.7,29.5,29.85,NNE,22,10.1,10.1,75,0.00,,SKC,0.00,VWS V14.01,2013-02-16 13:10:00,
2013-02-16 08:12:00,34.7,30.4,29.88,NNW,338,10.5,10.5,84,0.00,,SKC,0.00,VWS V14.01,2013-02-16 13:12:00,
2013-02-16 08:14:00,36.9,29.7,29.82,NNE,22,10.1,10.1,75,0.00,,SKC,0.00,VWS V14.01,2013-02-16 13:14:00,
2013-02-16 08:16:00,36.9,29.7,29.82,NNE,22,10.1,10.1,75,0.00,,SKC,0.00,VWS V14.01,2013-02-16 13:16:00,
2013-02-16 08:17:00,34.7,30.1,29.88,NNW,338,10.5,10.5,83,0.00,,SKC,0.00,VWS V14.01,2013-02-16 13:17:00,
2013-02-16 08:18:00,36.9,29.4,29.82,North,0,8.7,10.1,74,0.00,,SKC,0.00,VWS V14.01,2013-02-16 13:18:00,
2013-02-16 08:20:00,36.9,29.4,29.82,North,0,8.7,8.7,74,0.00,,SKC,0.00,VWS V14.01,2013-02-16 13:20:00,
2013-02-16 08:22:00,34.7,30.1,29.88,NNW,338,10.5,10.5,83,0.00,,SKC,0.00,VWS V14.01,2013-02-16 13:22:00,
2013-02-16 08:24:00,37.0,29.5,29.82,North,0,8.7,8.7,74,0.00,,SKC,0.00,VWS V14.01,2013-02-16 13:24:00,
2013-02-16 08:26:00,37.0,29.5,29.82,North,0,8.7,8.7,74,0.00,,SKC,0.00,VWS V14.01,2013-02-16 13:26:00,
2013-02-16 08:27:00,34.9,30.2,29.88,NNW,338,10.5,10.5,83,0.00,,SKC,0.00,VWS V14.01,2013-02-16 13:27:00,
2013-02-16 08:28:00,37.0,29.5,29.82,North,0,8.7,8.7,74,0.00,,SKC,0.00,VWS V14.01,2013-02-16 13:28:00,
2013-02-16 08:30:00,37.0,29.2,29.85,NNW,338,6.5,8.7,73,0.00,,SKC,0.00,VWS V14.01,2013-02-16 13:30:00,
2013-02-16 08:32:00,34.9,30.2,29.85,NNW,338,10.5,10.5,83,0.00,,SKC,0.00,VWS V14.01,2013-02-16 13:32:00,
2013-02-16 08:34:00,37.0,29.2,29.85,NNW,338,8.1,8.1,73,0.00,,SKC,0.00,VWS V14.01,2013-02-16 13:34:00,
2013-02-16 08:36:00,37.0,28.9,29.85,NNW,338,8.1,8.1,72,0.00,,SKC,0.00,VWS V14.01,2013-02-16 13:36:00,
2013-02-16 08:37:00,35.2,30.3,29.85,NNW,338,10.5,10.5,82,0.00,,SKC,0.00,VWS V14.01,2013-02-16 13:37:00,
2013-02-16 08:38:00,37.0,28.9,29.85,NNW,338,8.1,8.1,72,0.00,,SKC,0.00,VWS V14.01,2013-02-16 13:38:00,
2013-02-16 08:40:00,37.0,28.9,29.85,NNW,338,8.1,8.1,72,0.00,,SKC,0.00,VWS V14.01,2013-02-16 13:40:00,
2013-02-16 08:42:00,37.6,28.7,29.85,NNW,338,8.1,8.1,70,0.00,,SKC,0.00,VWS V14.01,2013-02-16 13:42:00,
2013-02-16 08:43:00,35.6,30.7,29.85,NNW,338,10.5,10.5,82,0.00,,SKC,0.00,VWS V14.01,2013-02-16 13:43:00,
2013-02-16 08:44:00,37.9,29.0,29.85,NNW,338,7.6,8.1,70,0.00,,SKC,0.00,VWS V14.01,2013-02-16 13:44:00,
2013-02-16 08:46:00,37.9,29.0,29.85,NNE,22,7.4,8.1,70,0.00,,SKC,0.00,VWS V14.01,2013-02-16 13:46:00,
2013-02-16 08:47:00,35.8,30.8,29.85,NNW,338,10.5,10.5,82,0.00,,SKC,0.00,VWS V14.01,2013-02-16 13:47:00,
2013-02-16 08:48:00,37.9,29.0,29.85,NNE,22,7.4,7.4,70,0.00,,SKC,0.00,VWS V14.01,2013-02-16 13:48:00,
2013-02-16 08:50:00,38.5,29.6,29.85,NNW,338,12.8,12.8,70,0.00,,SKC,0.00,VWS V14.01,2013-02-16 13:50:00,
2013-02-16 08:52:00,38.5,29.6,29.85,NNW,338,12.8,12.8,70,0.00,,SKC,0.00,VWS V14.01,2013-02-16 13:52:00,
2013-02-16 08:53:00,36.5,30.9,29.85,NNE,22,10.1,10.1,80,0.00,,SKC,0.00,VWS V14.01,2013-02-16 13:53:00,
2013-02-16 08:54:00,38.7,29.0,29.85,North,0,8.7,12.8,68,0.00,,SKC,0.00,VWS V14.01,2013-02-16 13:54:00,
2013-02-16 08:56:00,38.8,29.2,29.85,North,0,7.2,10.1,68,0.00,,SKC,0.00,VWS V14.01,2013-02-16 13:56:00,
2013-02-16 08:58:00,36.9,31.0,29.85,NNE,22,10.1,10.1,79,0.00,,SKC,0.00,VWS V14.01,2013-02-16 13:58:00,
2013-02-16 09:00:00,38.8,29.2,29.85,North,0,7.2,7.2,68,0.00,,SKC,0.00,VWS V14.01,2013-02-16 14:00:00,
2013-02-16 09:02:00,38.5,27.8,29.85,North,0,7.2,7.2,65,0.00,,SKC,0.00,VWS V14.01,2013-02-16 14:02:00,
2013-02-16 09:03:00,36.9,30.0,29.85,NNE,22,10.1,10.1,76,0.00,,SKC,0.00,VWS V14.01,2013-02-16 14:03:00,
2013-02-16 09:04:00,38.5,27.8,29.85,North,0,7.2,7.2,65,0.00,,SKC,0.00,VWS V14.01,2013-02-16 14:04:00,
2013-02-16 09:06:00,38.5,27.8,29.85,North,0,7.2,7.2,65,0.00,,SKC,0.00,VWS V14.01,2013-02-16 14:06:00,
2013-02-16 09:08:00,36.7,29.5,29.85,NNE,22,10.1,10.1,75,0.00,,SKC,0.00,VWS V14.01,2013-02-16 14:08:00,
2013-02-16 09:10:00,38.5,27.8,29.85,North,0,7.2,7.2,65,0.00,,SKC,0.00,VWS V14.01,2013-02-16 14:10:00,
2013-02-16 09:12:00,38.1,27.4,29.85,North,0,7.2,7.2,65,0.00,,SKC,0.00,VWS V14.01,2013-02-16 14:12:00,
2013-02-16 09:13:00,36.9,29.7,29.85,NNE,22,10.1,10.1,75,0.00,,SKC,0.00,VWS V14.01,2013-02-16 14:13:00,
2013-02-16 09:14:00,38.1,27.4,29.82,North,0,7.2,7.2,65,0.00,,SKC,0.00,VWS V14.01,2013-02-16 14:14:00,
2013-02-16 09:16:00,38.1,27.4,29.82,NNE,22,8.1,8.1,65,0.00,,SKC,0.00,VWS V14.01,2013-02-16 14:16:00,
2013-02-16 09:18:00,36.9,29.4,29.82,North,0,8.7,10.1,74,0.00,,SKC,0.00,VWS V14.01,2013-02-16 14:18:00,
2013-02-16 09:20:00,38.1,27.4,29.82,North,0,8.5,8.5,65,0.00,,SKC,0.00,VWS V14.01,2013-02-16 14:20:00,
2013-02-16 09:22:00,37.9,27.2,29.82,North,0,8.5,8.5,65,0.00,,SKC,0.00,VWS V14.01,2013-02-16 14:22:00,
2013-02-16 09:23:00,36.9,29.4,29.82,North,0,8.7,8.7,74,0.00,,SKC,0.00,VWS V14.01,2013-02-16 14:23:00,
2013-02-16 09:24:00,37.9,27.2,29.82,North,0,5.8,8.5,65,0.00,,SKC,0.00,VWS V14.01,2013-02-16 14:24:00,
2013-02-16 09:26:00,37.9,27.6,29.82,North,0,5.8,5.8,66,0.00,,SKC,0.00,VWS V14.01,2013-02-16 14:26:00,
2013-02-16 09:28:00,37.0,29.5,29.82,North,0,8.7,8.7,74,0.00,,SKC,0.00,VWS V14.01,2013-02-16 14:28:00,
2013-02-16 09:30:00,37.9,27.6,29.85,NNW,338,7.6,7.6,66,0.00,,SKC,0.00,VWS V14.01,2013-02-16 14:30:00,
2013-02-16 09:32:00,37.9,27.2,29.85,NNW,338,7.6,7.6,65,0.00,,SKC,0.00,VWS V14.01,2013-02-16 14:32:00,
2013-02-16 09:33:00,37.0,29.2,29.85,NNW,338,8.1,8.1,73,0.00,,SKC,0.00,VWS V14.01,2013-02-16 14:33:00,
2013-02-16 09:34:00,37.9,27.2,29.85,NNE,22,8.5,8.5,65,0.00,,SKC,0.00,VWS V14.01,2013-02-16 14:34:00,
2013-02-16 09:36:00,37.8,27.1,29.85,NNE,22,8.5,8.5,65,0.00,,SKC,0.00,VWS V14.01,2013-02-16 14:36:00,
2013-02-16 09:38:00,37.0,28.9,29.85,NNW,338,8.1,8.1,72,0.00,,SKC,0.00,VWS V14.01,2013-02-16 14:38:00,
2013-02-16 09:40:00,37.8,27.1,29.85,North,0,11.2,11.2,65,0.00,,SKC,0.00,VWS V14.01,2013-02-16 14:40:00,
2013-02-16 09:42:00,37.8,27.1,29.85,North,0,11.2,11.2,65,0.00,,SKC,0.00,VWS V14.01,2013-02-16 14:42:00,
2013-02-16 09:43:00,37.6,28.7,29.85,NNW,338,8.1,8.1,70,0.00,,SKC,0.00,VWS V14.01,2013-02-16 14:43:00,
2013-02-16 09:44:00,37.8,27.1,29.82,NNE,22,10.1,11.2,65,0.00,,SKC,0.00,VWS V14.01,2013-02-16 14:44:00,
2013-02-16 09:46:00,37.8,27.4,29.82,NNE,22,10.1,10.1,66,0.00,,SKC,0.00,VWS V14.01,2013-02-16 14:46:00,
2013-02-16 09:48:00,37.9,29.0,29.85,NNE,22,7.4,7.4,70,0.00,,SKC,0.00,VWS V14.01,2013-02-16 14:48:00,
2013-02-16 09:50:00,37.8,27.4,29.82,NNE,22,10.1,10.1,66,0.00,,SKC,0.00,VWS V14.01,2013-02-16 14:50:00,
2013-02-16 09:52:00,37.6,26.9,29.82,NNE,22,10.1,10.1,65,0.00,,SKC,0.00,VWS V14.01,2013-02-16 14:52:00,
2013-02-16 09:53:00,38.7,29.0,29.85,North,0,8.7,12.8,68,0.00,,SKC,0.00,VWS V14.01,2013-02-16 14:53:00,
2013-02-16 09:54:00,37.6,27.3,29.82,NNE,22,10.1,10.1,66,0.00,,SKC,0.00,VWS V14.01,2013-02-16 14:54:00,
2013-02-16 09:56:00,37.6,27.3,29.82,NNE,22,10.1,10.1,66,0.00,,SKC,0.00,VWS V14.01,2013-02-16 14:56:00,
2013-02-16 09:58:00,38.8,29.2,29.85,North,0,7.2,7.2,68,0.00,,SKC,0.00,VWS V14.01,2013-02-16 14:58:00,
2013-02-16 10:00:00,37.6,27.3,29.85,NNE,22,10.1,10.1,66,0.00,,SKC,0.00,VWS V14.01,2013-02-16 15:00:00,
2013-02-16 10:02:00,37.4,27.1,29.85,NNE,22,10.1,10.1,66,0.00,,SKC,0.00,VWS V14.01,2013-02-16 15:02:00,
2013-02-16 10:03:00,38.5,27.8,29.85,North,0,7.2,7.2,65,0.00,,SKC,0.00,VWS V14.01,2013-02-16 15:03:00,
2013-02-16 10:04:00,37.4,27.1,29.85,NNE,22,10.1,10.1,66,0.00,,SKC,0.00,VWS V14.01,2013-02-16 15:04:00,
2013-02-16 10:06:00,37.4,27.1,29.85,NNE,22,10.1,10.1,66,0.00,,SKC,0.00,VWS V14.01,2013-02-16 15:06:00,
2013-02-16 10:08:00,38.5,27.8,29.85,North,0,7.2,7.2,65,0.00,,SKC,0.00,VWS V14.01,2013-02-16 15:08:00,
2013-02-16 10:10:00,37.6,27.6,29.85,North,0,9.6,10.1,67,0.00,,SKC,0.00,VWS V14.01,2013-02-16 15:10:00,
2013-02-16 10:12:00,37.8,27.8,29.85,North,0,9.6,9.6,67,0.00,,SKC,0.00,VWS V14.01,2013-02-16 15:12:00,
2013-02-16 10:13:00,38.1,27.4,29.82,North,0,7.2,7.2,65,0.00,,SKC,0.00,VWS V14.01,2013-02-16 15:13:00,
2013-02-16 10:14:00,37.9,28.3,29.85,North,0,9.6,9.6,68,0.00,,SKC,0.00,VWS V14.01,2013-02-16 15:14:00,
2013-02-16 10:16:00,37.9,28.3,29.85,North,0,9.8,9.8,68,0.00,,SKC,0.00,VWS V14.01,2013-02-16 15:16:00,
2013-02-16 10:18:00,38.1,27.4,29.82,North,0,6.3,8.1,65,0.00,,SKC,0.00,VWS V14.01,2013-02-16 15:18:00,
2013-02-16 10:20:00,37.6,28.0,29.85,North,0,8.7,9.8,68,0.00,,SKC,0.00,VWS V14.01,2013-02-16 15:20:00,
2013-02-16 10:22:00,37.6,28.0,29.85,North,0,8.7,8.7,68,0.00,,SKC,0.00,VWS V14.01,2013-02-16 15:22:00,
2013-02-16 10:23:00,37.9,27.6,29.82,North,0,5.8,8.5,66,0.00,,SKC,0.00,VWS V14.01,2013-02-16 15:23:00,
2013-02-16 10:24:00,37.4,27.8,29.85,North,0,8.7,8.7,68,0.00,,SKC,0.00,VWS V14.01,2013-02-16 15:24:00,
2013-02-16 10:26:00,37.4,28.2,29.85,North,0,8.7,8.7,69,0.00,,SKC,0.00,VWS V14.01,2013-02-16 15:26:00,
2013-02-16 10:28:00,37.9,27.6,29.82,NNW,338,7.6,7.6,66,0.00,,SKC,0.00,VWS V14.01,2013-02-16 15:28:00,
2013-02-16 10:30:00,37.4,28.2,29.85,North,0,8.7,8.7,69,0.00,,SKC,0.00,VWS V14.01,2013-02-16 15:30:00,
2013-02-16 10:32:00,37.4,28.2,29.85,North,0,8.7,8.7,69,0.00,,SKC,0.00,VWS V14.01,2013-02-16 15:32:00,
2013-02-16 10:33:00,37.9,27.2,29.85,NNE,22,8.5,8.5,65,0.00,,SKC,0.00,VWS V14.01,2013-02-16 15:33:00,
2013-02-16 10:34:00,37.4,28.2,29.85,North,0,8.7,8.7,69,0.00,,SKC,0.00,VWS V14.01,2013-02-16 15:34:00,
2013-02-16 10:36:00,37.4,28.2,29.85,North,0,8.7,8.7,69,0.00,,SKC,0.00,VWS V14.01,2013-02-16 15:36:00,
2013-02-16 10:38:00,37.8,27.1,29.85,North,0,11.2,11.2,65,0.00,,SKC,0.00,VWS V14.01,2013-02-16 15:38:00,
2013-02-16 10:40:00,37.4,28.2,29.85,NNE,22,8.1,8.1,69,0.00,,SKC,0.00,VWS V14.01,2013-02-16 15:40:00,
2013-02-16 10:42:00,37.4,28.2,29.85,NNE,22,8.1,8.1,69,0.00,,SKC,0.00,VWS V14.01,2013-02-16 15:42:00,
2013-02-16 10:43:00,37.8,27.1,29.82,NNE,22,10.1,11.2,65,0.00,,SKC,0.00,VWS V14.01,2013-02-16 15:43:00,
2013-02-16 10:44:00,37.4,28.2,29.85,NNE,22,8.1,8.1,69,0.00,,SKC,0.00,VWS V14.01,2013-02-16 15:44:00,
2013-02-16 10:46:00,37.4,28.2,29.85,NNE,22,8.1,8.1,69,0.00,,SKC,0.00,VWS V14.01,2013-02-16 15:46:00,
2013-02-16 10:48:00,37.8,27.4,29.82,NNE,22,10.1,10.1,66,0.00,,SKC,0.00,VWS V14.01,2013-02-16 15:48:00,
2013-02-16 10:50:00,37.8,28.5,29.85,NNE,22,8.1,8.1,69,0.00,,SKC,0.00,VWS V14.01,2013-02-16 15:50:00,
2013-02-16 10:52:00,37.6,28.0,29.85,NNW,338,7.8,8.1,68,0.00,,SKC,0.00,VWS V14.01,2013-02-16 15:52:00,
2013-02-16 10:53:00,37.6,26.9,29.82,NNE,22,10.1,10.1,65,0.00,,SKC,0.00,VWS V14.01,2013-02-16 15:53:00,
2013-02-16 10:54:00,37.6,28.0,29.85,NNW,338,7.8,7.8,68,0.00,,SKC,0.00,VWS V14.01,2013-02-16 15:54:00,
2013-02-16 10:56:00,37.6,28.0,29.85,NNW,338,7.8,7.8,68,0.00,,SKC,0.00,VWS V14.01,2013-02-16 15:56:00,
2013-02-16 10:58:00,37.6,27.3,29.85,NNE,22,10.1,10.1,66,0.00,,SKC,0.00,VWS V14.01,2013-02-16 15:58:00,
2013-02-16 11:00:00,37.4,27.1,29.85,NNW,338,7.8,7.8,66,0.00,,SKC,0.00,VWS V14.01,2013-02-16 16:00:00,
2013-02-16 11:02:00,37.2,26.9,29.85,NNW,338,7.8,7.8,66,0.00,,SKC,0.00,VWS V14.01,2013-02-16 16:02:00,
2013-02-16 11:03:00,37.4,27.1,29.85,NNE,22,10.1,10.1,66,0.00,,SKC,0.00,VWS V14.01,2013-02-16 16:03:00,
2013-02-16 11:04:00,37.2,26.9,29.85,NNW,338,6.0,7.8,66,0.00,,SKC,0.00,VWS V14.01,2013-02-16 16:04:00,
2013-02-16 11:06:00,37.2,26.9,29.85,NNW,338,6.0,6.0,66,0.00,,SKC,0.00,VWS V14.01,2013-02-16 16:06:00,
2013-02-16 11:08:00,37.6,27.6,29.85,NNE,22,10.1,10.1,67,0.00,,SKC,0.00,VWS V14.01,2013-02-16 16:08:00,
2013-02-16 11:10:00,37.2,26.9,29.85,NNW,338,6.0,6.0,66,0.00,,SKC,0.00,VWS V14.01,2013-02-16 16:10:00,
2013-02-16 11:12:00,37.2,26.9,29.85,NNW,338,6.0,6.0,66,0.00,,SKC,0.00,VWS V14.01,2013-02-16 16:12:00,
2013-02-16 11:13:00,37.9,28.3,29.85,North,0,9.6,9.6,68,0.00,,SKC,0.00,VWS V14.01,2013-02-16 16:13:00,
2013-02-16 11:14:00,37.2,26.9,29.85,NNW,338,6.0,6.0,66,0.00,,SKC,0.00,VWS V14.01,2013-02-16 16:14:00,
2013-02-16 11:16:00,37.2,26.9,29.85,NNW,338,6.0,6.0,66,0.00,,SKC,0.00,VWS V14.01,2013-02-16 16:16:00,
2013-02-16 11:18:00,37.8,28.2,29.85,North,0,9.8,9.8,68,0.00,,SKC,0.00,VWS V14.01,2013-02-16 16:18:00,
2013-02-16 11:20:00,37.0,27.1,29.85,North,0,7.8,7.8,67,0.00,,SKC,0.00,VWS V14.01,2013-02-16 16:20:00,
2013-02-16 11:22:00,37.0,27.1,29.85,NNW,338,6.0,7.8,67,0.00,,SKC,0.00,VWS V14.01,2013-02-16 16:22:00,
2013-02-16 11:23:00,37.4,27.8,29.85,North,0,8.7,8.7,68,0.00,,SKC,0.00,VWS V14.01,2013-02-16 16:23:00,
2013-02-16 11:24:00,37.0,27.1,29.85,NNW,338,6.0,6.0,67,0.00,,SKC,0.00,VWS V14.01,2013-02-16 16:24:00,
2013-02-16 11:26:00,37.0,27.1,29.85,NNW,338,6.0,6.0,67,0.00,,SKC,0.00,VWS V14.01,2013-02-16 16:26:00,
2013-02-16 11:28:00,37.4,28.2,29.85,North,0,8.7,8.7,69,0.00,,SKC,0.00,VWS V14.01,2013-02-16 16:28:00,
2013-02-16 11:30:00,37.0,27.5,29.85,NW,315,9.8,10.5,68,0.00,,SKC,0.00,VWS V14.01,2013-02-16 16:30:00,
2013-02-16 11:32:00,37.0,27.5,29.85,North,0,8.7,9.8,68,0.00,,SKC,0.00,VWS V14.01,2013-02-16 16:32:00,
2013-02-16 11:33:00,37.4,28.2,29.85,North,0,8.7,8.7,69,0.00,,SKC,0.00,VWS V14.01,2013-02-16 16:33:00,
2013-02-16 11:34:00,36.9,27.7,29.85,North,0,7.6,8.7,69,0.00,,SKC,0.00,VWS V14.01,2013-02-16 16:34:00,
2013-02-16 11:36:00,36.9,27.7,29.85,NNW,338,6.0,7.6,69,0.00,,SKC,0.00,VWS V14.01,2013-02-16 16:36:00,
2013-02-16 11:38:00,37.4,28.2,29.85,NNE,22,8.1,8.7,69,0.00,,SKC,0.00,VWS V14.01,2013-02-16 16:38:00,
2013-02-16 11:40:00,36.9,27.7,29.85,North,0,6.5,7.2,69,0.00,,SKC,0.00,VWS V14.01,2013-02-16 16:40:00,
2013-02-16 11:42:00,36.9,27.7,29.85,North,0,9.6,9.6,69,0.00,,SKC,0.00,VWS V14.01,2013-02-16 16:42:00,
2013-02-16 11:43:00,37.4,28.2,29.85,NNE,22,8.1,8.1,69,0.00,,SKC,0.00,VWS V14.01,2013-02-16 16:43:00,
2013-02-16 11:44:00,36.9,27.7,29.82,NNW,338,6.3,9.6,69,0.00,,SKC,0.00,VWS V14.01,2013-02-16 16:44:00,
2013-02-16 11:46:00,36.9,27.7,29.82,NNW,338,6.3,9.6,69,0.00,,SKC,0.00,VWS V14.01,2013-02-16 16:46:00,
2013-02-16 11:48:00,37.8,28.5,29.85,NNE,22,8.1,8.1,69,0.00,,SKC,0.00,VWS V14.01,2013-02-16 16:48:00,
2013-02-16 11:50:00,36.9,27.7,29.82,NNW,338,6.3,6.3,69,0.00,,SKC,0.00,VWS V14.01,2013-02-16 16:50:00,
2013-02-16 11:52:00,36.9,28.0,29.82,North,0,6.5,6.5,70,0.00,,SKC,0.00,VWS V14.01,2013-02-16 16:52:00,
2013-02-16 11:53:00,37.6,28.0,29.85,NNW,338,7.8,8.1,68,0.00,,SKC,0.00,VWS V14.01,2013-02-16 16:53:00,
2013-02-16 11:54:00,36.9,28.0,29.82,North,0,6.5,6.5,70,0.00,,SKC,0.00,VWS V14.01,2013-02-16 16:54:00,
2013-02-16 11:56:00,36.9,28.0,29.82,North,0,6.5,6.5,70,0.00,,SKC,0.00,VWS V14.01,2013-02-16 16:56:00,
2013-02-16 11:58:00,37.4,27.1,29.85,NNW,338,7.8,7.8,66,0.00,,SKC,0.00,VWS V14.01,2013-02-16 16:58:00,
2013-02-16 12:00:00,36.7,28.5,29.82,North,0,6.5,6.5,72,0.00,,SKC,0.00,VWS V14.01,2013-02-16 17:00:00,
2013-02-16 12:02:00,36.7,28.5,29.82,NW,315,8.5,8.5,72,0.00,,SKC,0.00,VWS V14.01,2013-02-16 17:02:00,
2013-02-16 12:03:00,37.2,26.9,29.85,NNW,338,6.0,7.8,66,0.00,,SKC,0.00,VWS V14.01,2013-02-16 17:03:00,
2013-02-16 12:04:00,36.5,28.7,29.82,NNW,338,7.4,9.6,73,0.00,,SKC,0.00,VWS V14.01,2013-02-16 17:04:00,
2013-02-16 12:06:00,36.5,28.7,29.82,NW,315,8.5,8.5,73,0.00,,SKC,0.00,VWS V14.01,2013-02-16 17:06:00,
2013-02-16 12:08:00,37.2,26.9,29.85,NNW,338,6.0,6.0,66,0.00,,SKC,0.00,VWS V14.01,2013-02-16 17:08:00,
2013-02-16 12:10:00,36.3,28.8,29.82,NW,315,8.5,8.5,74,0.00,,SKC,0.00,VWS V14.01,2013-02-16 17:10:00,
2013-02-16 12:12:00,36.3,28.8,29.82,NW,315,8.5,8.5,74,0.00,,SKC,0.00,VWS V14.01,2013-02-16 17:12:00,
2013-02-16 12:13:00,37.2,26.9,29.85,NNW,338,6.0,6.0,66,0.00,,SKC,0.00,VWS V14.01,2013-02-16 17:13:00,
2013-02-16 12:14:00,36.1,29.3,29.82,NW,315,8.5,8.5,76,0.00,,SKC,0.00,VWS V14.01,2013-02-16 17:14:00,
2013-02-16 12:16:00,36.1,29.6,29.82,NW,315,8.5,8.5,77,0.00,,SKC,0.00,VWS V14.01,2013-02-16 17:16:00,
2013-02-16 12:18:00,37.0,27.1,29.85,NNW,338,6.0,6.0,67,0.00,,SKC,0.00,VWS V14.01,2013-02-16 17:18:00,
2013-02-16 12:20:00,36.1,29.6,29.82,NW,315,8.5,8.5,77,0.00,,SKC,0.00,VWS V14.01,2013-02-16 17:20:00,
2013-02-16 12:22:00,36.1,29.6,29.82,NW,315,8.5,8.5,77,0.00,,SKC,0.00,VWS V14.01,2013-02-16 17:22:00,
2013-02-16 12:23:00,37.0,27.1,29.85,NNW,338,6.0,7.8,67,0.00,,SKC,0.00,VWS V14.01,2013-02-16 17:23:00,
2013-02-16 12:24:00,36.1,29.6,29.82,NW,315,8.5,8.5,77,0.00,,SKC,0.00,VWS V14.01,2013-02-16 17:24:00,
2013-02-16 12:26:00,36.1,29.6,29.82,NNW,338,6.0,8.5,77,0.00,,SKC,0.00,VWS V14.01,2013-02-16 17:26:00,
2013-02-16 12:28:00,37.0,27.1,29.85,NNW,338,6.0,6.0,67,0.00,,SKC,0.00,VWS V14.01,2013-02-16 17:28:00,
2013-02-16 12:30:00,35.8,29.9,29.82,NNW,338,6.0,6.0,79,0.00,,SKC,0.00,VWS V14.01,2013-02-16 17:30:00,
2013-02-16 12:32:00,35.8,29.9,29.82,NNW,338,6.0,6.0,79,0.00,,SKC,0.00,VWS V14.01,2013-02-16 17:32:00,
2013-02-16 12:33:00,36.9,27.7,29.85,North,0,7.6,8.7,69,0.00,,SKC,0.00,VWS V14.01,2013-02-16 17:33:00,
2013-02-16 12:34:00,35.8,29.9,29.82,NNW,338,6.0,6.0,79,0.00,,SKC,0.00,VWS V14.01,2013-02-16 17:34:00,
2013-02-16 12:36:00,35.8,29.9,29.82,NNW,338,6.0,6.0,79,0.00,,SKC,0.00,VWS V14.01,2013-02-16 17:36:00,
2013-02-16 12:38:00,36.9,27.7,29.85,North,0,7.2,7.2,69,0.00,,SKC,0.00,VWS V14.01,2013-02-16 17:38:00,
2013-02-16 12:40:00,35.2,30.0,29.82,NW,315,7.6,7.6,81,0.00,,SKC,0.00,VWS V14.01,2013-02-16 17:40:00,
2013-02-16 12:42:00,35.2,30.0,29.82,NW,315,7.6,7.6,81,0.00,,SKC,0.00,VWS V14.01,2013-02-16 17:42:00,
2013-02-16 12:43:00,36.9,27.7,29.82,North,0,9.6,9.6,69,0.00,,SKC,0.00,VWS V14.01,2013-02-16 17:43:00,
2013-02-16 12:44:00,35.1,30.1,29.80,NW,315,7.6,7.6,82,0.00,,SKC,0.00,VWS V14.01,2013-02-16 17:44:00,
2013-02-16 12:46:00,35.1,30.4,29.80,NW,315,7.6,7.6,83,0.00,,SKC,0.00,VWS V14.01,2013-02-16 17:46:00,
2013-02-16 12:48:00,36.9,27.7,29.82,NNW,338,6.3,6.3,69,0.00,,SKC,0.00,VWS V14.01,2013-02-16 17:48:00,
2013-02-16 12:50:00,34.9,30.5,29.80,NW,315,7.6,7.6,84,0.00,,SKC,0.00,VWS V14.01,2013-02-16 17:50:00,
2013-02-16 12:52:00,34.9,30.5,29.80,NW,315,7.6,7.6,84,0.00,,SKC,0.00,VWS V14.01,2013-02-16 17:52:00,
2013-02-16 12:53:00,36.9,28.0,29.82,North,0,6.5,6.5,70,0.00,,SKC,0.00,VWS V14.01,2013-02-16 17:53:00,
2013-02-16 12:54:00,34.7,30.4,29.80,NNW,338,9.2,9.2,84,0.00,,SKC,0.00,VWS V14.01,2013-02-16 17:54:00,
2013-02-16 12:56:00,34.7,30.4,29.80,NNW,338,8.7,9.2,84,0.00,,SKC,0.00,VWS V14.01,2013-02-16 17:56:00,
2013-02-16 12:58:00,36.7,28.2,29.82,North,0,6.5,6.5,71,0.00,,SKC,0.00,VWS V14.01,2013-02-16 17:58:00,
2013-02-16 13:00:00,34.7,30.7,29.82,NNW,338,8.7,8.7,85,0.00,,SKC,0.00,VWS V14.01,2013-02-16 18:00:00,
2013-02-16 13:02:00,34.7,31.0,29.82,NNW,338,8.7,8.7,86,0.00,,SKC,0.00,VWS V14.01,2013-02-16 18:02:00,
2013-02-16 13:03:00,36.5,28.7,29.82,NNW,338,7.4,9.6,73,0.00,,SKC,0.00,VWS V14.01,2013-02-16 18:03:00,
2013-02-16 13:04:00,34.7,31.0,29.82,NW,315,5.8,8.7,86,0.00,,SKC,0.00,VWS V14.01,2013-02-16 18:04:00,
2013-02-16 13:06:00,34.7,31.0,29.82,NW,315,5.8,5.8,86,0.00,,SKC,0.00,VWS V14.01,2013-02-16 18:06:00,
2013-02-16 13:08:00,36.3,28.8,29.82,NW,315,8.5,8.5,74,0.00,,SKC,0.00,VWS V14.01,2013-02-16 18:08:00,
2013-02-16 13:10:00,34.3,30.6,29.82,NW,315,6.3,6.3,86,0.00,,SKC,0.00,VWS V14.01,2013-02-16 18:10:00,
2013-02-16 13:12:00,34.3,30.6,29.82,NW,315,6.3,6.3,86,0.00,,SKC,0.00,VWS V14.01,2013-02-16 18:12:00,
2013-02-16 13:14:00,36.3,28.8,29.82,NW,315,8.5,8.5,74,0.00,,SKC,0.00,VWS V14.01,2013-02-16 18:14:00,
2013-02-16 13:16:00,34.3,30.6,29.80,NW,315,6.3,6.3,86,0.00,,SKC,0.00,VWS V14.01,2013-02-16 18:16:00,
2013-02-16 13:18:00,34.2,30.4,29.80,NW,315,6.3,6.3,86,0.00,,SKC,0.00,VWS V14.01,2013-02-16 18:18:00,
2013-02-16 13:19:00,36.1,29.6,29.82,NW,315,8.5,8.5,77,0.00,,SKC,0.00,VWS V14.01,2013-02-16 18:19:00,
2013-02-16 13:20:00,34.0,30.2,29.80,NW,315,6.3,6.3,86,0.00,,SKC,0.00,VWS V14.01,2013-02-16 18:20:00,
2013-02-16 13:22:00,34.0,30.2,29.80,NNW,338,7.6,7.6,86,0.00,,SKC,0.00,VWS V14.01,2013-02-16 18:22:00,
2013-02-16 13:24:00,36.1,29.6,29.82,NW,315,8.5,8.5,77,0.00,,SKC,0.00,VWS V14.01,2013-02-16 18:24:00,
2013-02-16 13:26:00,34.0,30.2,29.80,NNW,338,10.3,10.3,86,0.00,,SKC,0.00,VWS V14.01,2013-02-16 18:26:00,
2013-02-16 13:28:00,34.0,30.2,29.80,NNW,338,10.3,10.3,86,0.00,,SKC,0.00,VWS V14.01,2013-02-16 18:28:00,
2013-02-16 13:29:00,35.8,29.9,29.82,NNW,338,6.0,6.0,79,0.00,,SKC,0.00,VWS V14.01,2013-02-16 18:29:00,
2013-02-16 13:30:00,33.8,30.1,29.80,NNW,338,6.5,10.3,86,0.00,,SKC,0.00,VWS V14.01,2013-02-16 18:30:00,
2013-02-16 13:32:00,33.8,29.8,29.80,North,0,8.5,8.5,85,0.00,,SKC,0.00,VWS V14.01,2013-02-16 18:32:00,
2013-02-16 13:34:00,35.8,29.9,29.82,NNW,338,6.0,6.0,79,0.00,,SKC,0.00,VWS V14.01,2013-02-16 18:34:00,
2013-02-16 13:36:00,33.8,29.8,29.80,North,0,8.5,8.5,85,0.00,,SKC,0.00,VWS V14.01,2013-02-16 18:36:00,
2013-02-16 13:38:00,33.8,29.5,29.80,North,0,8.5,8.5,84,0.00,,SKC,0.00,VWS V14.01,2013-02-16 18:38:00,
2013-02-16 13:39:00,35.2,30.0,29.82,NW,315,7.6,7.6,81,0.00,,SKC,0.00,VWS V14.01,2013-02-16 18:39:00,
2013-02-16 13:40:00,33.8,29.5,29.80,North,0,5.8,8.5,84,0.00,,SKC,0.00,VWS V14.01,2013-02-16 18:40:00,
2013-02-16 13:42:00,33.8,29.5,29.80,NNW,338,5.8,7.8,84,0.00,,SKC,0.00,VWS V14.01,2013-02-16 18:42:00,
2013-02-16 13:44:00,35.1,30.1,29.79,NW,315,7.6,7.6,82,0.00,,SKC,0.00,VWS V14.01,2013-02-16 18:44:00,
2013-02-16 13:46:00,34.0,30.0,29.80,North,0,6.0,9.2,85,0.00,,SKC,0.00,VWS V14.01,2013-02-16 18:46:00,
2013-02-16 13:48:00,34.0,30.0,29.80,North,0,8.7,9.2,85,0.00,,SKC,0.00,VWS V14.01,2013-02-16 18:48:00,
2013-02-16 13:49:00,35.1,30.4,29.79,NW,315,7.6,7.6,83,0.00,,SKC,0.00,VWS V14.01,2013-02-16 18:49:00,
2013-02-16 13:50:00,34.0,29.7,29.80,North,0,8.7,8.7,84,0.00,,SKC,0.00,VWS V14.01,2013-02-16 18:50:00,
2013-02-16 13:52:00,34.0,29.7,29.80,North,0,8.7,8.7,84,0.00,,SKC,0.00,VWS V14.01,2013-02-16 18:52:00,
2013-02-16 13:54:00,34.7,30.4,29.79,NNW,338,9.2,9.2,84,0.00,,SKC,0.00,VWS V14.01,2013-02-16 18:54:00,
2013-02-16 13:56:00,34.0,30.0,29.80,North,0,8.7,8.7,85,0.00,,SKC,0.00,VWS V14.01,2013-02-16 18:56:00,
2013-02-16 13:58:00,34.2,30.1,29.80,North,0,6.0,8.7,85,0.00,,SKC,0.00,VWS V14.01,2013-02-16 18:58:00,
2013-02-16 13:59:00,34.7,30.4,29.82,NNW,338,8.7,8.7,84,0.00,,SKC,0.00,VWS V14.01,2013-02-16 18:59:00,
2013-02-16 14:00:00,34.2,30.1,29.80,North,0,5.8,6.0,85,0.00,,SKC,0.00,VWS V14.01,2013-02-16 19:00:00,
2013-02-16 14:02:00,34.3,30.3,29.80,North,0,5.8,5.8,85,0.00,,SKC,0.00,VWS V14.01,2013-02-16 19:02:00,
2013-02-16 14:04:00,34.7,31.0,29.82,NW,315,5.8,8.7,86,0.00,,SKC,0.00,VWS V14.01,2013-02-16 19:04:00,
2013-02-16 14:06:00,34.3,30.0,29.80,North,0,5.8,5.8,84,0.00,,SKC,0.00,VWS V14.01,2013-02-16 19:06:00,
2013-02-16 14:08:00,34.3,30.0,29.80,North,0,5.8,5.8,84,0.00,,SKC,0.00,VWS V14.01,2013-02-16 19:08:00,
2013-02-16 14:09:00,34.7,31.0,29.82,NW,315,6.3,6.3,86,0.00,,SKC,0.00,VWS V14.01,2013-02-16 19:09:00,
2013-02-16 14:10:00,34.3,30.0,29.80,North,0,5.8,5.8,84,0.00,,SKC,0.00,VWS V14.01,2013-02-16 19:10:00,
2013-02-16 14:12:00,34.3,30.0,29.80,North,0,5.4,5.8,84,0.00,,SKC,0.00,VWS V14.01,2013-02-16 19:12:00,
2013-02-16 14:14:00,34.3,30.6,29.79,NW,315,6.3,6.3,86,0.00,,SKC,0.00,VWS V14.01,2013-02-16 19:14:00,
2013-02-16 14:16:00,34.3,30.0,29.82,North,0,5.4,5.4,84,0.00,,SKC,0.00,VWS V14.01,2013-02-16 19:16:00,
2013-02-16 14:18:00,34.3,30.0,29.82,North,0,5.4,5.4,84,0.00,,SKC,0.00,VWS V14.01,2013-02-16 19:18:00,
2013-02-16 14:19:00,34.2,30.4,29.79,NW,315,6.3,6.3,86,0.00,,SKC,0.00,VWS V14.01,2013-02-16 19:19:00,
2013-02-16 14:20:00,34.5,30.2,29.82,North,0,4.9,5.4,84,0.00,,SKC,0.00,VWS V14.01,2013-02-16 19:20:00,
2013-02-16 14:22:00,34.5,30.2,29.82,North,0,4.9,4.9,84,0.00,,SKC,0.00,VWS V14.01,2013-02-16 19:22:00,
2013-02-16 14:24:00,34.0,30.2,29.79,NNW,338,7.6,10.7,86,0.00,,SKC,0.00,VWS V14.01,2013-02-16 19:24:00,
2013-02-16 14:26:00,34.5,29.9,29.82,North,0,6.5,6.5,83,0.00,,SKC,0.00,VWS V14.01,2013-02-16 19:26:00,
2013-02-16 14:28:00,34.7,30.1,29.82,North,0,4.5,6.5,83,0.00,,SKC,0.00,VWS V14.01,2013-02-16 19:28:00,
2013-02-16 14:29:00,33.8,30.1,29.79,NNW,338,6.5,10.3,86,0.00,,SKC,0.00,VWS V14.01,2013-02-16 19:29:00,
2013-02-16 14:30:00,34.7,29.8,29.80,North,0,4.5,4.5,82,0.00,,SKC,0.00,VWS V14.01,2013-02-16 19:30:00,
2013-02-16 14:32:00,34.9,29.0,29.80,North,0,4.5,4.5,79,0.00,,SKC,0.00,VWS V14.01,2013-02-16 19:32:00,
2013-02-16 14:34:00,33.8,29.8,29.79,North,0,8.5,8.5,85,0.00,,SKC,0.00,VWS V14.01,2013-02-16 19:34:00,
2013-02-16 14:36:00,34.9,27.8,29.80,North,0,4.5,4.5,75,0.00,,SKC,0.00,VWS V14.01,2013-02-16 19:36:00,
2013-02-16 14:38:00,34.9,27.8,29.80,North,0,4.5,4.5,75,0.00,,SKC,0.00,VWS V14.01,2013-02-16 19:38:00,
2013-02-16 14:39:00,33.8,29.5,29.79,North,0,5.6,8.5,84,0.00,,SKC,0.00,VWS V14.01,2013-02-16 19:39:00,
2013-02-16 14:40:00,34.9,27.8,29.80,North,0,4.5,4.5,75,0.00,,SKC,0.00,VWS V14.01,2013-02-16 19:40:00,
2013-02-16 14:42:00,35.1,28.0,29.80,North,0,6.9,6.9,75,0.00,,SKC,0.00,VWS V14.01,2013-02-16 19:42:00,
2013-02-16 14:44:00,33.8,29.8,29.79,NNW,338,9.2,9.6,85,0.00,,SKC,0.00,VWS V14.01,2013-02-16 19:44:00,
2013-02-16 14:46:00,34.9,27.1,29.80,North,0,6.9,6.9,73,0.00,,SKC,0.00,VWS V14.01,2013-02-16 19:46:00,
2013-02-16 14:48:00,34.9,27.1,29.80,North,0,6.9,6.9,73,0.00,,SKC,0.00,VWS V14.01,2013-02-16 19:48:00,
2013-02-16 14:49:00,34.0,29.7,29.79,North,0,8.7,9.2,84,0.00,,SKC,0.00,VWS V14.01,2013-02-16 19:49:00,
2013-02-16 14:50:00,34.9,26.8,29.80,NNE,22,5.4,6.9,72,0.00,,SKC,0.00,VWS V14.01,2013-02-16 19:50:00,
2013-02-16 14:52:00,34.9,26.5,29.80,NNE,22,5.4,6.9,71,0.00,,SKC,0.00,VWS V14.01,2013-02-16 19:52:00,
2013-02-16 14:54:00,34.0,30.0,29.79,North,0,8.7,8.7,85,0.00,,SKC,0.00,VWS V14.01,2013-02-16 19:54:00,
2013-02-16 14:56:00,34.9,26.1,29.80,NNE,22,5.4,5.4,70,0.00,,SKC,0.00,VWS V14.01,2013-02-16 19:56:00,
2013-02-16 14:58:00,34.9,25.8,29.80,NNE,22,5.4,5.4,69,0.00,,SKC,0.00,VWS V14.01,2013-02-16 19:58:00,
2013-02-16 14:59:00,34.2,30.1,29.79,North,0,6.0,7.2,85,0.00,,SKC,0.00,VWS V14.01,2013-02-16 19:59:00,
2013-02-16 15:00:00,34.9,25.4,29.76,NNE,22,5.4,5.4,68,0.00,,SKC,0.00,VWS V14.01,2013-02-16 20:00:00,
2013-02-16 15:02:00,34.9,25.4,29.76,NNE,22,5.4,5.4,68,0.00,,SKC,0.00,VWS V14.01,2013-02-16 20:02:00,
2013-02-16 15:04:00,34.2,29.8,29.79,North,0,5.8,5.8,84,0.00,,SKC,0.00,VWS V14.01,2013-02-16 20:04:00,
2013-02-16 15:06:00,35.1,25.9,29.76,NNE,22,5.4,5.4,69,0.00,,SKC,0.00,VWS V14.01,2013-02-16 20:06:00,
2013-02-16 15:08:00,35.1,26.3,29.76,NNE,22,5.4,5.4,70,0.00,,SKC,0.00,VWS V14.01,2013-02-16 20:08:00,
2013-02-16 15:09:00,34.3,30.0,29.79,North,0,5.8,5.8,84,0.00,,SKC,0.00,VWS V14.01,2013-02-16 20:09:00,
2013-02-16 15:10:00,35.1,26.3,29.76,NNE,22,5.4,5.4,70,0.00,,SKC,0.00,VWS V14.01,2013-02-16 20:10:00,
2013-02-16 15:12:00,35.1,26.3,29.76,NNE,22,5.4,5.4,70,0.00,,SKC,0.00,VWS V14.01,2013-02-16 20:12:00,
2013-02-16 15:14:00,34.3,30.0,29.82,North,0,5.4,5.4,84,0.00,,SKC,0.00,VWS V14.01,2013-02-16 20:14:00,
2013-02-16 15:16:00,35.1,26.3,29.80,NNE,22,5.4,5.4,70,0.00,,SKC,0.00,VWS V14.01,2013-02-16 20:16:00,
2013-02-16 15:18:00,35.2,26.8,29.80,NNE,22,5.4,5.4,71,0.00,,SKC,0.00,VWS V14.01,2013-02-16 20:18:00,
2013-02-16 15:19:00,34.5,30.2,29.82,North,0,5.4,5.4,84,0.00,,SKC,0.00,VWS V14.01,2013-02-16 20:19:00,
2013-02-16 15:20:00,35.2,26.8,29.80,NNE,22,5.4,5.4,71,0.00,,SKC,0.00,VWS V14.01,2013-02-16 20:20:00,
2013-02-16 15:22:00,35.2,26.8,29.80,NNE,22,5.4,5.4,71,0.00,,SKC,0.00,VWS V14.01,2013-02-16 20:22:00,
2013-02-16 15:24:00,34.5,29.9,29.82,North,0,6.5,6.5,83,0.00,,SKC,0.00,VWS V14.01,2013-02-16 20:24:00,
2013-02-16 15:26:00,35.1,27.0,29.80,NNE,22,5.4,5.4,72,0.00,,SKC,0.00,VWS V14.01,2013-02-16 20:26:00,
2013-02-16 15:28:00,35.1,27.0,29.80,NNE,22,5.4,5.4,72,0.00,,SKC,0.00,VWS V14.01,2013-02-16 20:28:00,
2013-02-16 15:29:00,34.7,30.1,29.79,North,0,4.5,6.5,83,0.00,,SKC,0.00,VWS V14.01,2013-02-16 20:29:00,
2013-02-16 15:30:00,35.1,27.0,29.76,NNE,22,5.4,5.4,72,0.00,,SKC,0.00,VWS V14.01,2013-02-16 20:30:00,
2013-02-16 15:32:00,35.2,27.1,29.76,North,0,3.6,5.4,72,0.00,,SKC,0.00,VWS V14.01,2013-02-16 20:32:00,
2013-02-16 15:34:00,34.9,28.4,29.79,North,0,4.5,4.5,77,0.00,,SKC,0.00,VWS V14.01,2013-02-16 20:34:00,
2013-02-16 15:36:00,35.2,27.1,29.76,North,0,2.9,3.6,72,0.00,,SKC,0.00,VWS V14.01,2013-02-16 20:36:00,
2013-02-16 15:38:00,35.2,27.1,29.76,North,0,2.9,2.9,72,0.00,,SKC,0.00,VWS V14.01,2013-02-16 20:38:00,
2013-02-16 15:39:00,34.9,27.8,29.79,North,0,4.5,4.5,75,0.00,,SKC,0.00,VWS V14.01,2013-02-16 20:39:00,
2013-02-16 15:40:00,35.4,27.6,29.76,North,0,2.9,2.9,73,0.00,,SKC,0.00,VWS V14.01,2013-02-16 20:40:00,
2013-02-16 15:42:00,35.4,27.6,29.76,North,0,2.9,2.9,73,0.00,,SKC,0.00,VWS V14.01,2013-02-16 20:42:00,
2013-02-16 15:44:00,34.9,27.8,29.79,North,0,6.9,6.9,75,0.00,,SKC,0.00,VWS V14.01,2013-02-16 20:44:00,
2013-02-16 15:46:00,35.4,27.6,29.80,North,0,3.1,3.1,73,0.00,,SKC,0.00,VWS V14.01,2013-02-16 20:46:00,
2013-02-16 15:48:00,35.4,27.6,29.80,North,0,3.1,3.1,73,0.00,,SKC,0.00,VWS V14.01,2013-02-16 20:48:00,
2013-02-16 15:49:00,34.9,26.8,29.79,North,0,6.9,6.9,72,0.00,,SKC,0.00,VWS V14.01,2013-02-16 20:49:00,
2013-02-16 15:50:00,35.4,27.6,29.80,North,0,3.1,3.1,73,0.00,,SKC,0.00,VWS V14.01,2013-02-16 20:50:00,
2013-02-16 15:52:00,35.4,27.6,29.80,North,0,1.1,3.1,73,0.00,,SKC,0.00,VWS V14.01,2013-02-16 20:52:00,
2013-02-16 15:54:00,34.9,26.1,29.79,NNE,22,5.4,5.4,70,0.00,,SKC,0.00,VWS V14.01,2013-02-16 20:54:00,
2013-02-16 15:56:00,35.4,27.6,29.80,North,0,1.1,1.1,73,0.00,,SKC,0.00,VWS V14.01,2013-02-16 20:56:00,
2013-02-16 15:58:00,35.4,28.0,29.80,North,0,1.1,1.1,74,0.00,,SKC,0.00,VWS V14.01,2013-02-16 20:58:00,
2013-02-16 15:59:00,34.9,25.4,29.76,NNE,22,5.4,5.4,68,0.00,,SKC,0.00,VWS V14.01,2013-02-16 20:59:00,
2013-02-16 16:00:00,35.4,28.0,29.80,North,0,1.1,1.1,74,0.00,,SKC,0.00,VWS V14.01,2013-02-16 21:00:00,
2013-02-16 16:02:00,35.4,27.3,29.80,North,0,1.1,1.1,72,0.00,,SKC,0.00,VWS V14.01,2013-02-16 21:02:00,
2013-02-16 16:04:00,35.1,25.9,29.76,NNE,22,5.4,5.4,69,0.00,,SKC,0.00,VWS V14.01,2013-02-16 21:04:00,
2013-02-16 16:06:00,35.4,26.3,29.80,North,0,1.1,1.1,69,0.00,,SKC,0.00,VWS V14.01,2013-02-16 21:06:00,
2013-02-16 16:08:00,35.4,25.6,29.80,North,0,1.1,1.1,67,0.00,,SKC,0.00,VWS V14.01,2013-02-16 21:08:00,
2013-02-16 16:09:00,35.1,26.3,29.76,NNE,22,5.4,5.4,70,0.00,,SKC,0.00,VWS V14.01,2013-02-16 21:09:00,
2013-02-16 16:10:00,35.4,25.6,29.80,NNW,338,6.0,6.0,67,0.00,,SKC,0.00,VWS V14.01,2013-02-16 21:10:00,
2013-02-16 16:12:00,35.4,24.8,29.80,NNW,338,6.0,6.0,65,0.00,,SKC,0.00,VWS V14.01,2013-02-16 21:12:00,
2013-02-16 16:14:00,35.1,26.3,29.79,NNE,22,5.4,5.4,70,0.00,,SKC,0.00,VWS V14.01,2013-02-16 21:14:00,
2013-02-16 16:16:00,35.4,24.5,29.80,NNW,338,6.0,6.0,64,0.00,,SKC,0.00,VWS V14.01,2013-02-16 21:16:00,
2013-02-16 16:18:00,35.4,24.8,29.80,NNW,338,6.0,6.0,65,0.00,,SKC,0.00,VWS V14.01,2013-02-16 21:18:00,
2013-02-16 16:19:00,35.1,26.6,29.79,NNE,22,5.4,5.4,71,0.00,,SKC,0.00,VWS V14.01,2013-02-16 21:19:00,
2013-02-16 16:20:00,35.4,24.8,29.80,North,0,5.6,6.0,65,0.00,,SKC,0.00,VWS V14.01,2013-02-16 21:20:00,
2013-02-16 16:22:00,35.4,24.8,29.80,North,0,5.6,5.6,65,0.00,,SKC,0.00,VWS V14.01,2013-02-16 21:22:00,
2013-02-16 16:24:00,35.2,27.1,29.79,NNE,22,5.4,5.4,72,0.00,,SKC,0.00,VWS V14.01,2013-02-16 21:24:00,
2013-02-16 16:26:00,35.4,24.5,29.80,North,0,5.6,5.6,64,0.00,,SKC,0.00,VWS V14.01,2013-02-16 21:26:00,
2013-02-16 16:28:00,35.6,23.1,29.80,North,0,5.6,5.6,60,0.00,,SKC,0.00,VWS V14.01,2013-02-16 21:28:00,
2013-02-16 16:29:00,35.1,27.0,29.76,NNE,22,5.4,5.4,72,0.00,,SKC,0.00,VWS V14.01,2013-02-16 21:29:00,
2013-02-16 16:30:00,35.4,24.5,29.76,SE,135,3.8,5.6,64,0.00,,SKC,0.00,VWS V14.01,2013-02-16 21:30:00,
2013-02-16 16:32:00,35.4,24.8,29.76,SE,135,3.8,3.8,65,0.00,,SKC,0.00,VWS V14.01,2013-02-16 21:32:00,
2013-02-16 16:34:00,35.2,27.1,29.76,North,0,2.9,3.6,72,0.00,,SKC,0.00,VWS V14.01,2013-02-16 21:34:00,
2013-02-16 16:36:00,35.2,25.0,29.76,North,0,2.9,3.8,66,0.00,,SKC,0.00,VWS V14.01,2013-02-16 21:36:00,
2013-02-16 16:38:00,35.2,25.4,29.76,NNW,338,2.9,5.4,67,0.00,,SKC,0.00,VWS V14.01,2013-02-16 21:38:00,
2013-02-16 16:39:00,35.2,27.1,29.76,North,0,2.9,2.9,72,0.00,,SKC,0.00,VWS V14.01,2013-02-16 21:39:00,
2013-02-16 16:40:00,35.2,25.4,29.76,North,0,2.5,5.4,67,0.00,,SKC,0.00,VWS V14.01,2013-02-16 21:40:00,
2013-02-16 16:42:00,35.2,25.8,29.76,North,0,8.5,8.5,68,0.00,,SKC,0.00,VWS V14.01,2013-02-16 21:42:00,
2013-02-16 16:44:00,35.4,27.6,29.79,North,0,2.9,2.9,73,0.00,,SKC,0.00,VWS V14.01,2013-02-16 21:44:00,
2013-02-16 16:46:00,35.1,25.6,29.76,NNW,338,6.3,6.5,68,0.00,,SKC,0.00,VWS V14.01,2013-02-16 21:46:00,
2013-02-16 16:48:00,35.2,23.9,29.76,North,0,10.5,10.5,63,0.00,,SKC,0.00,VWS V14.01,2013-02-16 21:48:00,
2013-02-16 16:49:00,35.4,27.6,29.79,North,0,3.1,3.1,73,0.00,,SKC,0.00,VWS V14.01,2013-02-16 21:49:00,
2013-02-16 16:50:00,35.2,23.9,29.76,North,0,4.9,10.5,63,0.00,,SKC,0.00,VWS V14.01,2013-02-16 21:50:00,
2013-02-16 16:52:00,35.4,24.8,29.76,North,0,5.4,8.1,65,0.00,,SKC,0.00,VWS V14.01,2013-02-16 21:52:00,
2013-02-16 16:54:00,35.4,27.6,29.79,North,0,1.1,1.1,73,0.00,,SKC,0.00,VWS V14.01,2013-02-16 21:54:00,
2013-02-16 16:56:00,35.2,25.0,29.76,North,0,5.4,5.4,66,0.00,,SKC,0.00,VWS V14.01,2013-02-16 21:56:00,
2013-02-16 16:58:00,35.2,25.0,29.76,NNE,22,3.6,5.4,66,0.00,,SKC,0.00,VWS V14.01,2013-02-16 21:58:00,
2013-02-16 16:59:00,35.4,28.0,29.79,North,0,1.1,1.1,74,0.00,,SKC,0.00,VWS V14.01,2013-02-16 21:59:00,
2013-02-16 17:00:00,35.2,25.0,29.76,NNE,22,3.6,3.6,66,0.00,,SKC,0.00,VWS V14.01,2013-02-16 22:00:00,
2013-02-16 17:02:00,35.2,25.0,29.76,NNE,22,3.6,3.6,66,0.00,,SKC,0.00,VWS V14.01,2013-02-16 22:02:00,
2013-02-16 17:04:00,35.4,27.0,29.79,North,0,1.1,1.1,71,0.00,,SKC,0.00,VWS V14.01,2013-02-16 22:04:00,
2013-02-16 17:06:00,35.2,24.7,29.76,ENE,68,8.7,8.7,65,0.00,,SKC,0.00,VWS V14.01,2013-02-16 22:06:00,
2013-02-16 17:08:00,35.2,24.7,29.76,ENE,68,8.7,8.7,65,0.00,,SKC,0.00,VWS V14.01,2013-02-16 22:08:00,
2013-02-16 17:09:00,35.4,25.6,29.79,NNW,338,6.0,6.0,67,0.00,,SKC,0.00,VWS V14.01,2013-02-16 22:09:00,
2013-02-16 17:10:00,35.2,24.3,29.76,ENE,68,8.7,8.7,64,0.00,,SKC,0.00,VWS V14.01,2013-02-16 22:10:00,
2013-02-16 17:12:00,35.2,24.3,29.76,NNE,22,7.8,8.7,64,0.00,,SKC,0.00,VWS V14.01,2013-02-16 22:12:00,
2013-02-16 17:14:00,35.4,24.8,29.79,NNW,338,6.0,6.0,65,0.00,,SKC,0.00,VWS V14.01,2013-02-16 22:14:00,
2013-02-16 17:16:00,35.4,24.1,29.76,NNE,22,11.0,11.0,63,0.00,,SKC,0.00,VWS V14.01,2013-02-16 22:16:00,
2013-02-16 17:18:00,35.6,22.7,29.76,NNE,22,11.0,11.0,59,0.00,,SKC,0.00,VWS V14.01,2013-02-16 22:18:00,
2013-02-16 17:19:00,35.4,24.8,29.79,North,0,5.6,6.0,65,0.00,,SKC,0.00,VWS V14.01,2013-02-16 22:19:00,
2013-02-16 17:20:00,35.6,22.7,29.76,NNE,22,11.0,11.0,59,0.00,,SKC,0.00,VWS V14.01,2013-02-16 22:20:00,
2013-02-16 17:22:00,35.6,22.7,29.76,NNE,22,11.0,11.0,59,0.00,,SKC,0.00,VWS V14.01,2013-02-16 22:22:00,
2013-02-16 17:24:00,35.4,24.8,29.79,North,0,5.6,5.6,65,0.00,,SKC,0.00,VWS V14.01,2013-02-16 22:24:00,
2013-02-16 17:26:00,35.6,23.1,29.76,NNE,22,5.8,5.8,60,0.00,,SKC,0.00,VWS V14.01,2013-02-16 22:26:00,
2013-02-16 17:28:00,35.6,22.7,29.76,NNE,22,5.8,5.8,59,0.00,,SKC,0.00,VWS V14.01,2013-02-16 22:28:00,
2013-02-16 17:29:00,35.4,24.5,29.76,SE,135,3.8,5.6,64,0.00,,SKC,0.00,VWS V14.01,2013-02-16 22:29:00,
2013-02-16 17:30:00,35.6,22.7,29.74,North,0,3.6,5.8,59,0.00,,SKC,0.00,VWS V14.01,2013-02-16 22:30:00,
2013-02-16 17:32:00,35.6,22.3,29.74,NE,45,4.9,4.9,58,0.00,,SKC,0.00,VWS V14.01,2013-02-16 22:32:00,
2013-02-16 17:34:00,35.2,25.8,29.76,SE,135,3.8,3.8,68,0.00,,SKC,0.00,VWS V14.01,2013-02-16 22:34:00,
2013-02-16 17:36:00,35.6,22.3,29.74,NE,45,3.8,8.1,58,0.00,,SKC,0.00,VWS V14.01,2013-02-16 22:36:00,
2013-02-16 17:38:00,35.6,22.3,29.74,NE,45,4.3,6.0,58,0.00,,SKC,0.00,VWS V14.01,2013-02-16 22:38:00,
2013-02-16 17:39:00,35.2,25.4,29.76,North,0,2.5,5.4,67,0.00,,SKC,0.00,VWS V14.01,2013-02-16 22:39:00,
2013-02-16 17:40:00,35.6,22.3,29.74,North,0,6.5,9.8,58,0.00,,SKC,0.00,VWS V14.01,2013-02-16 22:40:00,
2013-02-16 17:42:00,35.6,22.7,29.74,North,0,4.9,6.0,59,0.00,,SKC,0.00,VWS V14.01,2013-02-16 22:42:00,
2013-02-16 17:44:00,35.1,25.6,29.76,North,0,5.4,10.1,68,0.00,,SKC,0.00,VWS V14.01,2013-02-16 22:44:00,
2013-02-16 17:46:00,35.6,21.9,29.74,NE,45,8.1,12.3,57,0.00,,SKC,0.00,VWS V14.01,2013-02-16 22:46:00,
2013-02-16 17:48:00,35.6,21.9,29.74,North,0,7.2,12.1,57,0.00,,SKC,0.00,VWS V14.01,2013-02-16 22:48:00,
2013-02-16 17:49:00,35.2,23.9,29.76,NNW,338,8.7,10.5,63,0.00,,SKC,0.00,VWS V14.01,2013-02-16 22:49:00,
2013-02-16 17:50:00,35.6,21.9,29.74,ENE,68,5.8,9.8,57,0.00,,SKC,0.00,VWS V14.01,2013-02-16 22:50:00,
2013-02-16 17:52:00,35.6,21.9,29.74,East,90,5.4,9.2,57,0.00,,SKC,0.00,VWS V14.01,2013-02-16 22:52:00,
2013-02-16 17:54:00,35.2,25.0,29.76,North,0,5.4,5.4,66,0.00,,SKC,0.00,VWS V14.01,2013-02-16 22:54:00,
2013-02-16 17:56:00,35.6,21.5,29.74,NNE,22,11.0,11.0,56,0.00,,SKC,0.00,VWS V14.01,2013-02-16 22:56:00,
2013-02-16 17:58:00,35.6,21.5,29.74,NNW,338,3.4,12.8,56,0.00,,SKC,0.00,VWS V14.01,2013-02-16 22:58:00,
2013-02-16 17:59:00,35.2,25.0,29.76,NNE,22,3.6,3.6,66,0.00,,SKC,0.00,VWS V14.01,2013-02-16 22:59:00,
2013-02-16 18:00:00,35.6,21.5,29.76,North,0,10.1,10.1,56,0.00,,SKC,0.00,VWS V14.01,2013-02-16 23:00:00,
2013-02-16 18:02:00,35.6,21.5,29.76,North,0,10.1,10.1,56,0.00,,SKC,0.00,VWS V14.01,2013-02-16 23:02:00,
2013-02-16 18:04:00,35.2,24.7,29.76,ENE,68,8.7,8.7,65,0.00,,SKC,0.00,VWS V14.01,2013-02-16 23:04:00,
2013-02-16 18:06:00,35.6,21.0,29.76,North,0,10.1,10.1,55,0.00,,SKC,0.00,VWS V14.01,2013-02-16 23:06:00,
2013-02-16 18:08:00,35.6,21.0,29.76,North,0,10.1,10.1,55,0.00,,SKC,0.00,VWS V14.01,2013-02-16 23:08:00,
2013-02-16 18:09:00,35.2,24.3,29.76,ENE,68,8.7,8.7,64,0.00,,SKC,0.00,VWS V14.01,2013-02-16 23:09:00,
2013-02-16 18:10:00,35.6,21.0,29.76,North,0,10.1,10.1,55,0.00,,SKC,0.00,VWS V14.01,2013-02-16 23:10:00,
2013-02-16 18:12:00,35.6,21.0,29.76,North,0,10.1,10.1,55,0.00,,SKC,0.00,VWS V14.01,2013-02-16 23:12:00,
2013-02-16 18:14:00,35.4,24.1,29.76,NNE,22,7.8,7.8,63,0.00,,SKC,0.00,VWS V14.01,2013-02-16 23:14:00,
2013-02-16 18:16:00,35.6,21.5,29.74,North,0,10.1,10.1,56,0.00,,SKC,0.00,VWS V14.01,2013-02-16 23:16:00,
2013-02-16 18:18:00,35.4,21.7,29.74,North,0,10.1,10.1,57,0.00,,SKC,0.00,VWS V14.01,2013-02-16 23:18:00,
2013-02-16 18:19:00,35.6,22.7,29.76,NNE,22,11.0,11.0,59,0.00,,SKC,0.00,VWS V14.01,2013-02-16 23:19:00,
2013-02-16 18:20:00,35.4,21.3,29.74,North,0,10.1,10.1,56,0.00,,SKC,0.00,VWS V14.01,2013-02-16 23:20:00,
2013-02-16 18:22:00,35.4,21.3,29.74,North,0,10.1,10.1,56,0.00,,SKC,0.00,VWS V14.01,2013-02-16 23:22:00,
2013-02-16 18:24:00,35.6,23.1,29.76,NNE,22,5.8,11.0,60,0.00,,SKC,0.00,VWS V14.01,2013-02-16 23:24:00,
2013-02-16 18:26:00,35.4,21.3,29.74,North,0,10.1,10.1,56,0.00,,SKC,0.00,VWS V14.01,2013-02-16 23:26:00,
2013-02-16 18:28:00,35.4,21.3,29.74,North,0,10.1,10.1,56,0.00,,SKC,0.00,VWS V14.01,2013-02-16 23:28:00,
2013-02-16 18:29:00,35.6,22.7,29.74,North,0,3.6,5.8,59,0.00,,SKC,0.00,VWS V14.01,2013-02-16 23:29:00,
2013-02-16 18:30:00,35.4,20.9,29.74,North,0,10.1,10.1,55,0.00,,SKC,0.00,VWS V14.01,2013-02-16 23:30:00,
2013-02-16 18:32:00,35.4,20.9,29.74,North,0,10.1,10.1,55,0.00,,SKC,0.00,VWS V14.01,2013-02-16 23:32:00,
2013-02-16 18:34:00,35.6,22.3,29.74,NE,45,8.1,8.5,58,0.00,,SKC,0.00,VWS V14.01,2013-02-16 23:34:00,
2013-02-16 18:36:00,35.4,21.3,29.74,NNW,338,6.0,10.1,56,0.00,,SKC,0.00,VWS V14.01,2013-02-16 23:36:00,
2013-02-16 18:38:00,35.4,21.3,29.74,NNW,338,6.0,10.1,56,0.00,,SKC,0.00,VWS V14.01,2013-02-16 23:38:00,
2013-02-16 18:39:00,35.6,22.3,29.74,North,0,9.8,9.8,58,0.00,,SKC,0.00,VWS V14.01,2013-02-16 23:39:00,
2013-02-16 18:40:00,35.4,21.3,29.74,NNW,338,6.0,6.0,56,0.00,,SKC,0.00,VWS V14.01,2013-02-16 23:40:00,
2013-02-16 18:42:00,35.4,21.3,29.74,NW,315,7.6,7.6,56,0.00,,SKC,0.00,VWS V14.01,2013-02-16 23:42:00,
2013-02-16 18:44:00,35.6,22.3,29.74,North,0,7.8,13.0,58,0.00,,SKC,0.00,VWS V14.01,2013-02-16 23:44:00,
2013-02-16 18:46:00,35.6,21.0,29.74,NW,315,7.6,7.6,55,0.00,,SKC,0.00,VWS V14.01,2013-02-16 23:46:00,
2013-02-16 18:48:00,35.6,21.0,29.74,NW,315,7.6,7.6,55,0.00,,SKC,0.00,VWS V14.01,2013-02-16 23:48:00,
2013-02-16 18:50:00,35.6,21.9,29.74,ENE,68,5.8,9.8,57,0.00,,SKC,0.00,VWS V14.01,2013-02-16 23:50:00,
2013-02-16 18:52:00,35.6,20.6,29.74,NW,315,7.6,7.6,54,0.00,,SKC,0.00,VWS V14.01,2013-02-16 23:52:00,
2013-02-16 18:54:00,35.6,20.6,29.74,NW,315,7.6,7.6,54,0.00,,SKC,0.00,VWS V14.01,2013-02-16 23:54:00,
2013-02-16 18:55:00,35.6,21.9,29.74,North,0,8.5,17.9,57,0.00,,SKC,0.00,VWS V14.01,2013-02-16 23:55:00,
2013-02-16 18:56:00,35.6,20.6,29.74,NW,315,7.6,7.6,54,0.00,,SKC,0.00,VWS V14.01,2013-02-16 23:56:00,
2013-02-16 18:58:00,35.6,20.6,29.74,NW,315,7.6,7.6,54,0.00,,SKC,0.00,VWS V14.01,2013-02-16 23:58:00,
2013-02-16 19:00:00,35.6,21.5,29.76,North,0,10.1,10.1,56,0.00,,SKC,0.00,VWS V14.01,2013-02-17 00:00:00,
2013-02-16 19:02:00,35.6,20.6,29.74,NW,315,7.6,7.6,54,0.00,,SKC,0.00,VWS V14.01,2013-02-17 00:02:00,
2013-02-16 19:04:00,35.6,20.6,29.74,NW,315,7.6,7.6,54,0.00,,SKC,0.00,VWS V14.01,2013-02-17 00:04:00,
2013-02-16 19:05:00,35.6,21.0,29.76,North,0,10.1,10.1,55,0.00,,SKC,0.00,VWS V14.01,2013-02-17 00:05:00,
2013-02-16 19:06:00,35.6,20.6,29.74,NW,315,7.6,7.6,54,0.00,,SKC,0.00,VWS V14.01,2013-02-17 00:06:00,
2013-02-16 19:08:00,35.6,21.0,29.74,NW,315,7.6,7.6,55,0.00,,SKC,0.00,VWS V14.01,2013-02-17 00:08:00,
2013-02-16 19:10:00,35.6,21.0,29.76,North,0,10.1,10.1,55,0.00,,SKC,0.00,VWS V14.01,2013-02-17 00:10:00,
2013-02-16 19:12:00,35.4,20.9,29.74,NW,315,7.6,7.6,55,0.00,,SKC,0.00,VWS V14.01,2013-02-17 00:12:00,
2013-02-16 19:14:00,35.4,20.9,29.74,NW,315,7.6,7.6,55,0.00,,SKC,0.00,VWS V14.01,2013-02-17 00:14:00,
2013-02-16 19:15:00,35.6,21.5,29.74,North,0,10.1,10.1,56,0.00,,SKC,0.00,VWS V14.01,2013-02-17 00:15:00,
2013-02-16 19:16:00,35.4,20.9,29.74,NW,315,7.6,7.6,55,0.00,,SKC,0.00,VWS V14.01,2013-02-17 00:16:00,
2013-02-16 19:18:00,35.4,20.9,29.74,NW,315,7.6,7.6,55,0.00,,SKC,0.00,VWS V14.01,2013-02-17 00:18:00,
2013-02-16 19:20:00,35.4,21.3,29.74,North,0,10.1,10.1,56,0.00,,SKC,0.00,VWS V14.01,2013-02-17 00:20:00,
2013-02-16 19:22:00,35.4,20.9,29.74,NNE,22,11.0,14.5,55,0.00,,SKC,0.00,VWS V14.01,2013-02-17 00:22:00,
2013-02-16 19:24:00,35.4,20.9,29.74,NW,315,12.1,12.5,55,0.00,,SKC,0.00,VWS V14.01,2013-02-17 00:24:00,
2013-02-16 19:25:00,35.4,21.3,29.74,North,0,10.1,10.1,56,0.00,,SKC,0.00,VWS V14.01,2013-02-17 00:25:00,
2013-02-16 19:26:00,35.4,21.3,29.74,NNW,338,10.7,10.7,56,0.00,,SKC,0.00,VWS V14.01,2013-02-17 00:26:00,
2013-02-16 19:28:00,35.2,21.1,29.74,NW,315,10.3,13.2,56,0.00,,SKC,0.00,VWS V14.01,2013-02-17 00:28:00,
2013-02-16 19:30:00,35.4,20.9,29.74,North,0,10.1,10.1,55,0.00,,SKC,0.00,VWS V14.01,2013-02-17 00:30:00,
2013-02-16 19:32:00,35.2,21.1,29.74,NNW,338,7.6,13.2,56,0.00,,SKC,0.00,VWS V14.01,2013-02-17 00:32:00,
2013-02-16 19:34:00,35.1,21.0,29.74,NNW,338,13.0,13.0,56,0.00,,SKC,0.00,VWS V14.01,2013-02-17 00:34:00,
2013-02-16 19:35:00,35.4,21.3,29.74,North,0,10.1,10.1,56,0.00,,SKC,0.00,VWS V14.01,2013-02-17 00:35:00,
2013-02-16 19:36:00,35.1,21.0,29.74,NNW,338,7.6,10.5,56,0.00,,SKC,0.00,VWS V14.01,2013-02-17 00:36:00,
2013-02-16 19:38:00,35.1,20.5,29.74,NW,315,13.0,14.3,55,0.00,,SKC,0.00,VWS V14.01,2013-02-17 00:38:00,
2013-02-16 19:40:00,35.4,21.3,29.74,NNW,338,6.0,6.0,56,0.00,,SKC,0.00,VWS V14.01,2013-02-17 00:40:00,
2013-02-16 19:42:00,34.9,20.4,29.74,NW,315,12.1,13.0,55,0.00,,SKC,0.00,VWS V14.01,2013-02-17 00:42:00,
2013-02-16 19:44:00,34.9,20.4,29.74,North,0,8.1,12.1,55,0.00,,SKC,0.00,VWS V14.01,2013-02-17 00:44:00,
2013-02-16 19:45:00,35.6,21.0,29.74,NW,315,7.6,7.6,55,0.00,,SKC,0.00,VWS V14.01,2013-02-17 00:45:00,
2013-02-16 19:46:00,34.9,20.4,29.74,NNW,338,6.0,14.5,55,0.00,,SKC,0.00,VWS V14.01,2013-02-17 00:46:00,
2013-02-16 19:48:00,34.7,20.2,29.74,NNW,338,12.8,15.2,55,0.00,,SKC,0.00,VWS V14.01,2013-02-17 00:48:00,
2013-02-16 19:50:00,35.6,20.6,29.74,NW,315,7.6,7.6,54,0.00,,SKC,0.00,VWS V14.01,2013-02-17 00:50:00,
2013-02-16 19:52:00,34.7,19.8,29.74,North,0,8.5,12.5,54,0.00,,SKC,0.00,VWS V14.01,2013-02-17 00:52:00,
2013-02-16 19:54:00,34.5,19.6,29.74,NNW,338,12.3,12.5,54,0.00,,SKC,0.00,VWS V14.01,2013-02-17 00:54:00,
2013-02-16 19:55:00,35.6,20.6,29.74,NW,315,7.6,7.6,54,0.00,,SKC,0.00,VWS V14.01,2013-02-17 00:55:00,
2013-02-16 19:56:00,34.5,20.0,29.74,NNW,338,14.3,14.3,55,0.00,,SKC,0.00,VWS V14.01,2013-02-17 00:56:00,
2013-02-16 19:58:00,34.5,20.0,29.74,NNW,338,8.7,13.2,55,0.00,,SKC,0.00,VWS V14.01,2013-02-17 00:58:00,
2013-02-16 20:00:00,35.6,20.6,29.74,NW,315,7.6,7.6,54,0.00,,SKC,0.00,VWS V14.01,2013-02-17 01:00:00,
2013-02-16 20:02:00,34.5,20.0,29.74,North,0,11.0,12.1,55,0.00,,SKC,0.00,VWS V14.01,2013-02-17 01:02:00,
2013-02-16 20:04:00,34.3,19.9,29.74,North,0,12.1,13.0,55,0.00,,SKC,0.00,VWS V14.01,2013-02-17 01:04:00,
2013-02-16 20:05:00,35.6,20.6,29.74,NW,315,7.6,7.6,54,0.00,,SKC,0.00,VWS V14.01,2013-02-17 01:05:00,
2013-02-16 20:06:00,34.3,19.9,29.74,NNW,338,10.3,13.0,55,0.00,,SKC,0.00,VWS V14.01,2013-02-17 01:06:00,
2013-02-16 20:08:00,34.3,19.9,29.74,North,0,5.4,13.9,55,0.00,,SKC,0.00,VWS V14.01,2013-02-17 01:08:00,
2013-02-16 20:10:00,35.6,21.0,29.74,NW,315,7.6,7.6,55,0.00,,SKC,0.00,VWS V14.01,2013-02-17 01:10:00,
2013-02-16 20:12:00,34.3,20.3,29.74,North,0,7.4,14.3,56,0.00,,SKC,0.00,VWS V14.01,2013-02-17 01:12:00,
2013-02-16 20:14:00,34.2,20.1,29.74,North,0,9.0,12.8,56,0.00,,SKC,0.00,VWS V14.01,2013-02-17 01:14:00,
2013-02-16 20:15:00,35.4,20.9,29.74,NW,315,7.6,7.6,55,0.00,,SKC,0.00,VWS V14.01,2013-02-17 01:15:00,
2013-02-16 20:16:00,34.2,20.1,29.74,North,0,11.0,12.3,56,0.00,,SKC,0.00,VWS V14.01,2013-02-17 01:16:00,
2013-02-16 20:18:00,34.2,20.1,29.74,North,0,11.9,14.5,56,0.00,,SKC,0.00,VWS V14.01,2013-02-17 01:18:00,
2013-02-16 20:20:00,35.4,20.9,29.74,North,0,11.2,14.3,55,0.00,,SKC,0.00,VWS V14.01,2013-02-17 01:20:00,
2013-02-16 20:22:00,34.2,20.1,29.74,NNW,338,10.7,15.2,56,0.00,,SKC,0.00,VWS V14.01,2013-02-17 01:22:00,
2013-02-16 20:24:00,34.0,20.0,29.74,North,0,14.5,15.2,56,0.00,,SKC,0.00,VWS V14.01,2013-02-17 01:24:00,
2013-02-16 20:25:00,35.4,20.9,29.74,North,0,9.0,12.1,55,0.00,,SKC,0.00,VWS V14.01,2013-02-17 01:25:00,
2013-02-16 20:26:00,34.0,20.0,29.74,North,0,8.7,12.8,56,0.00,,SKC,0.00,VWS V14.01,2013-02-17 01:26:00,
2013-02-16 20:28:00,34.0,20.0,29.74,NNW,338,10.1,15.2,56,0.00,,SKC,0.00,VWS V14.01,2013-02-17 01:28:00,
2013-02-16 20:30:00,35.2,21.1,29.74,North,0,8.5,12.1,56,0.00,,SKC,0.00,VWS V14.01,2013-02-17 01:30:00,
2013-02-16 20:32:00,34.0,20.0,29.71,NNW,338,12.5,14.1,56,0.00,,SKC,0.00,VWS V14.01,2013-02-17 01:32:00,
2013-02-16 20:34:00,34.0,20.0,29.71,NNW,338,9.2,14.8,56,0.00,,SKC,0.00,VWS V14.01,2013-02-17 01:34:00,
2013-02-16 20:35:00,35.1,21.0,29.74,NW,315,8.1,13.0,56,0.00,,SKC,0.00,VWS V14.01,2013-02-17 01:35:00,
2013-02-16 20:36:00,34.0,20.0,29.71,NW,315,5.8,12.5,56,0.00,,SKC,0.00,VWS V14.01,2013-02-17 01:36:00,
2013-02-16 20:38:00,34.0,20.4,29.71,North,0,8.5,13.0,57,0.00,,SKC,0.00,VWS V14.01,2013-02-17 01:38:00,
2013-02-16 20:40:00,34.9,20.4,29.74,NNW,338,12.5,12.5,55,0.00,,SKC,0.00,VWS V14.01,2013-02-17 01:40:00,
2013-02-16 20:42:00,33.8,20.2,29.71,NNE,22,10.7,13.0,57,0.00,,SKC,0.00,VWS V14.01,2013-02-17 01:42:00,
2013-02-16 20:44:00,33.8,20.2,29.71,North,0,13.0,13.2,57,0.00,,SKC,0.00,VWS V14.01,2013-02-17 01:44:00,
2013-02-16 20:45:00,34.9,20.4,29.74,NW,315,8.1,14.5,55,0.00,,SKC,0.00,VWS V14.01,2013-02-17 01:45:00,
2013-02-16 20:46:00,33.8,20.2,29.71,NW,315,13.4,13.4,57,0.00,,SKC,0.00,VWS V14.01,2013-02-17 01:46:00,
2013-02-16 20:48:00,33.8,20.2,29.71,North,0,8.5,17.0,57,0.00,,SKC,0.00,VWS V14.01,2013-02-17 01:48:00,
2013-02-16 20:50:00,34.7,19.8,29.74,NNW,338,10.5,12.3,54,0.00,,SKC,0.00,VWS V14.01,2013-02-17 01:50:00,
2013-02-16 20:52:00,33.6,20.0,29.71,North,0,11.0,15.2,57,0.00,,SKC,0.00,VWS V14.01,2013-02-17 01:52:00,
2013-02-16 20:54:00,33.6,20.0,29.71,North,0,10.3,10.5,57,0.00,,SKC,0.00,VWS V14.01,2013-02-17 01:54:00,
2013-02-16 20:55:00,34.5,20.0,29.74,NW,315,8.7,12.1,55,0.00,,SKC,0.00,VWS V14.01,2013-02-17 01:55:00,
2013-02-16 20:56:00,33.6,20.4,29.71,NNW,338,8.5,10.7,58,0.00,,SKC,0.00,VWS V14.01,2013-02-17 01:56:00,
2013-02-16 20:58:00,33.6,20.4,29.71,North,0,15.2,15.2,58,0.00,,SKC,0.00,VWS V14.01,2013-02-17 01:58:00,
2013-02-16 21:00:00,34.5,19.6,29.74,NW,315,12.1,15.7,54,0.00,,SKC,0.00,VWS V14.01,2013-02-17 02:00:00,
2013-02-16 21:02:00,33.4,20.7,29.68,NNW,338,15.4,15.4,59,0.00,,SKC,0.00,VWS V14.01,2013-02-17 02:02:00,
2013-02-16 21:04:00,33.3,20.5,29.68,NNW,338,13.0,14.8,59,0.00,,SKC,0.00,VWS V14.01,2013-02-17 02:04:00,
2013-02-16 21:05:00,34.3,19.9,29.74,NNE,22,10.3,12.1,55,0.00,,SKC,0.00,VWS V14.01,2013-02-17 02:05:00,
2013-02-16 21:06:00,33.3,20.5,29.68,NNW,338,10.1,14.8,59,0.00,,SKC,0.00,VWS V14.01,2013-02-17 02:06:00,
2013-02-16 21:08:00,33.1,20.7,29.68,North,0,13.2,13.2,60,0.00,,SKC,0.00,VWS V14.01,2013-02-17 02:08:00,
2013-02-16 21:10:00,34.3,20.3,29.74,NNW,338,10.7,15.2,56,0.00,,SKC,0.00,VWS V14.01,2013-02-17 02:10:00,
2013-02-16 21:12:00,32.9,20.9,29.68,NNW,338,8.5,14.8,61,0.00,,SKC,0.00,VWS V14.01,2013-02-17 02:12:00,
2013-02-16 21:14:00,32.9,21.3,29.68,NNW,338,12.1,12.8,62,0.00,,SKC,0.00,VWS V14.01,2013-02-17 02:14:00,
2013-02-16 21:15:00,34.2,20.1,29.74,NNW,338,8.1,12.3,56,0.00,,SKC,0.00,VWS V14.01,2013-02-17 02:15:00,
2013-02-16 21:16:00,32.7,21.5,29.68,NNW,338,13.0,17.7,63,0.00,,SKC,0.00,VWS V14.01,2013-02-17 02:16:00,
2013-02-16 21:18:00,32.7,21.9,29.68,North,0,12.8,15.2,64,0.00,,SKC,0.00,VWS V14.01,2013-02-17 02:18:00,
2013-02-16 21:20:00,34.2,20.1,29.74,North,0,15.2,15.2,56,0.00,,SKC,0.00,VWS V14.01,2013-02-17 02:20:00,
2013-02-16 21:22:00,32.5,22.1,29.68,North,0,12.3,13.2,65,0.00,,SKC,0.00,VWS V14.01,2013-02-17 02:22:00,
2013-02-16 21:24:00,32.5,22.8,29.68,North,0,10.7,12.8,67,0.00,,SKC,0.00,VWS V14.01,2013-02-17 02:24:00,
2013-02-16 21:25:00,34.0,20.0,29.74,North,0,9.6,14.5,56,0.00,,SKC,0.00,VWS V14.01,2013-02-17 02:25:00,
2013-02-16 21:26:00,32.4,23.0,29.68,North,0,8.1,13.0,68,0.00,,SKC,0.00,VWS V14.01,2013-02-17 02:26:00,
2013-02-16 21:28:00,32.2,23.2,29.68,North,0,10.5,14.1,69,0.00,,SKC,0.00,VWS V14.01,2013-02-17 02:28:00,
2013-02-16 21:30:00,34.0,20.0,29.71,NNW,338,9.8,14.1,56,0.00,,SKC,0.00,VWS V14.01,2013-02-17 02:30:00,
2013-02-16 21:32:00,32.2,23.5,29.68,North,0,10.5,16.1,70,0.00,,SKC,0.00,VWS V14.01,2013-02-17 02:32:00,
2013-02-16 21:34:00,32.0,23.3,29.68,North,0,13.0,13.0,70,0.00,,SKC,0.00,VWS V14.01,2013-02-17 02:34:00,
2013-02-16 21:35:00,34.0,20.0,29.71,North,0,8.7,12.5,56,0.00,,SKC,0.00,VWS V14.01,2013-02-17 02:35:00,
2013-02-16 21:36:00,31.8,23.5,29.68,NNW,338,10.1,11.2,71,0.00,,SKC,0.00,VWS V14.01,2013-02-17 02:36:00,
2013-02-16 21:38:00,31.8,23.5,29.68,North,0,8.1,13.2,71,0.00,,SKC,0.00,VWS V14.01,2013-02-17 02:38:00,
2013-02-16 21:40:00,33.8,20.2,29.71,North,0,12.5,12.5,57,0.00,,SKC,0.00,VWS V14.01,2013-02-17 02:40:00,
2013-02-16 21:42:00,31.8,23.8,29.68,North,0,10.5,17.5,72,0.00,,SKC,0.00,VWS V14.01,2013-02-17 02:42:00,
2013-02-16 21:44:00,31.8,23.8,29.71,NW,315,12.3,14.8,72,0.00,,SKC,0.00,VWS V14.01,2013-02-17 02:44:00,
2013-02-16 21:45:00,33.8,20.2,29.71,NNW,338,9.8,13.0,57,0.00,,SKC,0.00,VWS V14.01,2013-02-17 02:45:00,
2013-02-16 21:46:00,31.6,23.7,29.71,NNE,22,5.4,11.9,72,0.00,,SKC,0.00,VWS V14.01,2013-02-17 02:46:00,
2013-02-16 21:48:00,31.6,24.0,29.71,North,0,12.5,15.2,73,0.00,,SKC,0.00,VWS V14.01,2013-02-17 02:48:00,
2013-02-16 21:50:00,33.8,20.2,29.71,NNW,338,13.6,13.6,57,0.00,,SKC,0.00,VWS V14.01,2013-02-17 02:50:00,
2013-02-16 21:52:00,31.6,24.0,29.71,North,0,16.3,16.3,73,0.00,,SKC,0.00,VWS V14.01,2013-02-17 02:52:00,
2013-02-16 21:54:00,31.6,24.0,29.71,NNW,338,10.3,13.0,73,0.00,,SKC,0.00,VWS V14.01,2013-02-17 02:54:00,
2013-02-16 21:55:00,33.6,20.4,29.71,North,0,10.5,12.1,58,0.00,,SKC,0.00,VWS V14.01,2013-02-17 02:55:00,
2013-02-16 21:56:00,31.6,24.0,29.71,NNW,338,15.2,18.1,73,0.00,,SKC,0.00,VWS V14.01,2013-02-17 02:56:00,
2013-02-16 21:58:00,31.6,24.0,29.71,North,0,12.8,15.4,73,0.00,,SKC,0.00,VWS V14.01,2013-02-17 02:58:00,
2013-02-16 22:00:00,33.4,20.3,29.68,NNW,338,10.1,17.2,58,0.00,,SKC,0.00,VWS V14.01,2013-02-17 03:00:00,
2013-02-16 22:02:00,31.5,23.5,29.68,North,0,10.7,16.1,72,0.00,,SKC,0.00,VWS V14.01,2013-02-17 03:02:00,
2013-02-16 22:04:00,31.5,23.5,29.68,NNW,338,12.8,14.8,72,0.00,,SKC,0.00,VWS V14.01,2013-02-17 03:04:00,
2013-02-16 22:05:00,33.3,20.5,29.68,NW,315,11.0,15.9,59,0.00,,SKC,0.00,VWS V14.01,2013-02-17 03:05:00,
2013-02-16 22:06:00,31.5,23.5,29.68,NNE,22,11.4,17.5,72,0.00,,SKC,0.00,VWS V14.01,2013-02-17 03:06:00,
2013-02-16 22:08:00,31.5,23.8,29.68,North,0,14.3,15.7,73,0.00,,SKC,0.00,VWS V14.01,2013-02-17 03:08:00,
2013-02-16 22:10:00,33.1,21.1,29.68,North,0,14.8,14.8,61,0.00,,SKC,0.00,VWS V14.01,2013-02-17 03:10:00,
2013-02-16 22:12:00,31.3,23.6,29.68,North,0,12.8,17.5,73,0.00,,SKC,0.00,VWS V14.01,2013-02-17 03:12:00,
2013-02-16 22:14:00,31.3,23.6,29.65,North,0,16.3,17.5,73,0.00,,SKC,0.00,VWS V14.01,2013-02-17 03:14:00,
2013-02-16 22:15:00,32.7,21.5,29.68,NNW,338,17.7,17.7,63,0.00,,SKC,0.00,VWS V14.01,2013-02-17 03:15:00,
2013-02-16 22:16:00,31.3,23.6,29.65,North,0,14.8,14.8,73,0.00,,SKC,0.00,VWS V14.01,2013-02-17 03:16:00,
2013-02-16 22:18:00,31.3,23.6,29.65,NNE,22,10.7,13.4,73,0.00,,SKC,0.00,VWS V14.01,2013-02-17 03:18:00,
2013-02-16 22:20:00,32.5,22.1,29.68,North,0,10.3,14.8,65,0.00,,SKC,0.00,VWS V14.01,2013-02-17 03:20:00,
2013-02-16 22:22:00,31.1,23.5,29.65,North,0,12.3,15.9,73,0.00,,SKC,0.00,VWS V14.01,2013-02-17 03:22:00,
2013-02-16 22:24:00,31.1,23.5,29.65,NNW,338,19.9,19.9,73,0.00,,SKC,0.00,VWS V14.01,2013-02-17 03:24:00,
2013-02-16 22:25:00,32.4,23.0,29.68,NNW,338,9.0,13.0,68,0.00,,SKC,0.00,VWS V14.01,2013-02-17 03:25:00,
2013-02-16 22:26:00,31.1,23.5,29.65,NNW,338,12.8,17.0,73,0.00,,SKC,0.00,VWS V14.01,2013-02-17 03:26:00,
2013-02-16 22:28:00,31.1,23.5,29.65,NNW,338,14.1,15.4,73,0.00,,SKC,0.00,VWS V14.01,2013-02-17 03:28:00,
2013-02-16 22:30:00,32.2,23.5,29.68,North,0,10.1,14.3,70,0.00,,SKC,0.00,VWS V14.01,2013-02-17 03:30:00,
2013-02-16 22:32:00,31.1,23.5,29.65,NNW,338,11.0,11.0,73,0.00,,SKC,0.00,VWS V14.01,2013-02-17 03:32:00,
2013-02-16 22:34:00,31.1,23.8,29.65,NNW,338,12.1,15.4,74,0.00,,SKC,0.00,VWS V14.01,2013-02-17 03:34:00,
2013-02-16 22:35:00,31.8,23.5,29.68,NNE,22,10.3,15.9,71,0.00,,SKC,0.00,VWS V14.01,2013-02-17 03:35:00,
2013-02-16 22:36:00,31.1,23.8,29.65,NNW,338,11.2,17.5,74,0.00,,SKC,0.00,VWS V14.01,2013-02-17 03:36:00,
2013-02-16 22:38:00,30.9,23.6,29.65,NNW,338,14.8,17.2,74,0.00,,SKC,0.00,VWS V14.01,2013-02-17 03:38:00,
2013-02-16 22:40:00,31.8,23.8,29.68,North,0,17.5,17.5,72,0.00,,SKC,0.00,VWS V14.01,2013-02-17 03:40:00,
2013-02-16 22:42:00,30.9,23.6,29.65,NNW,338,9.8,11.2,74,0.00,,SKC,0.00,VWS V14.01,2013-02-17 03:42:00,
2013-02-16 22:44:00,30.9,23.6,29.62,NNW,338,11.2,11.2,74,0.00,,SKC,0.00,VWS V14.01,2013-02-17 03:44:00,
2013-02-16 22:45:00,31.6,23.7,29.71,NNW,338,9.6,12.3,72,0.00,,SKC,0.00,VWS V14.01,2013-02-17 03:45:00,
2013-02-16 22:46:00,30.9,23.6,29.62,NW,315,12.5,17.0,74,0.00,,SKC,0.00,VWS V14.01,2013-02-17 03:46:00,
2013-02-16 22:48:00,30.9,23.6,29.62,North,0,12.8,12.8,74,0.00,,SKC,0.00,VWS V14.01,2013-02-17 03:48:00,
2013-02-16 22:50:00,31.6,24.0,29.71,North,0,7.6,13.6,73,0.00,,SKC,0.00,VWS V14.01,2013-02-17 03:50:00,
2013-02-16 22:52:00,30.7,23.8,29.62,North,0,10.3,14.5,75,0.00,,SKC,0.00,VWS V14.01,2013-02-17 03:52:00,
2013-02-16 22:54:00,30.7,23.8,29.62,North,0,15.2,15.4,75,0.00,,SKC,0.00,VWS V14.01,2013-02-17 03:54:00,
2013-02-16 22:56:00,31.6,24.0,29.71,NNW,338,15.2,18.1,73,0.00,,SKC,0.00,VWS V14.01,2013-02-17 03:56:00,
2013-02-16 22:58:00,30.6,23.6,29.62,North,0,12.1,15.4,75,0.00,,SKC,0.00,VWS V14.01,2013-02-17 03:58:00,
2013-02-16 23:00:00,30.6,23.6,29.62,NNW,338,12.8,17.2,75,0.00,,SKC,0.00,VWS V14.01,2013-02-17 04:00:00,
2013-02-16 23:01:00,31.5,23.5,29.68,North,0,13.2,16.3,72,0.00,,SKC,0.00,VWS V14.01,2013-02-17 04:01:00,
2013-02-16 23:02:00,30.6,23.6,29.62,North,0,11.2,15.2,75,0.00,,SKC,0.00,VWS V14.01,2013-02-17 04:02:00,
2013-02-16 23:04:00,30.4,23.7,29.62,NNW,338,13.0,20.6,76,0.00,,SKC,0.00,VWS V14.01,2013-02-17 04:04:00,
2013-02-16 23:06:00,31.5,23.5,29.68,NNE,22,11.4,17.5,72,0.00,,SKC,0.00,VWS V14.01,2013-02-17 04:06:00,
2013-02-16 23:08:00,30.2,23.9,29.62,North,0,13.2,17.7,77,0.00,,SKC,0.00,VWS V14.01,2013-02-17 04:08:00,
2013-02-16 23:10:00,30.2,23.9,29.62,NNW,338,15.2,15.2,77,0.00,,SKC,0.00,VWS V14.01,2013-02-17 04:10:00,
2013-02-16 23:11:00,31.3,23.6,29.68,North,0,17.5,17.5,73,0.00,,SKC,0.00,VWS V14.01,2013-02-17 04:11:00,
2013-02-16 23:12:00,30.2,23.9,29.62,North,0,13.0,19.0,77,0.00,,SKC,0.00,VWS V14.01,2013-02-17 04:12:00,
2013-02-16 23:14:00,30.2,23.9,29.59,NNW,338,12.3,15.4,77,0.00,,SKC,0.00,VWS V14.01,2013-02-17 04:14:00,
2013-02-16 23:16:00,31.3,23.6,29.65,North,0,14.8,14.8,73,0.00,,SKC,0.00,VWS V14.01,2013-02-17 04:16:00,
2013-02-16 23:18:00,30.2,24.2,29.59,NNW,338,13.2,16.8,78,0.00,,SKC,0.00,VWS V14.01,2013-02-17 04:18:00,
2013-02-16 23:20:00,30.0,23.7,29.59,North,0,15.9,15.9,77,0.00,,SKC,0.00,VWS V14.01,2013-02-17 04:20:00,
2013-02-16 23:21:00,31.3,24.0,29.65,North,0,15.9,15.9,74,0.00,,SKC,0.00,VWS V14.01,2013-02-17 04:21:00,
2013-02-16 23:22:00,30.0,24.0,29.59,North,0,8.7,14.3,78,0.00,,SKC,0.00,VWS V14.01,2013-02-17 04:22:00,
2013-02-16 23:24:00,30.0,24.0,29.59,North,0,13.0,13.0,78,0.00,,SKC,0.00,VWS V14.01,2013-02-17 04:24:00,
2013-02-16 23:26:00,31.1,23.5,29.65,NNW,338,12.8,17.0,73,0.00,,SKC,0.00,VWS V14.01,2013-02-17 04:26:00,
2013-02-16 23:28:00,30.0,23.7,29.59,North,0,7.6,12.3,77,0.00,,SKC,0.00,VWS V14.01,2013-02-17 04:28:00,
2013-02-16 23:30:00,30.0,24.0,29.62,NNW,338,8.7,13.0,78,0.00,,SKC,0.00,VWS V14.01,2013-02-17 04:30:00,
2013-02-16 23:31:00,31.1,23.5,29.65,North,0,10.5,17.7,73,0.00,,SKC,0.00,VWS V14.01,2013-02-17 04:31:00,
2013-02-16 23:32:00,30.0,24.0,29.62,North,0,12.3,12.5,78,0.00,,SKC,0.00,VWS V14.01,2013-02-17 04:32:00,
2013-02-16 23:34:00,30.0,24.0,29.62,North,0,9.2,12.8,78,0.00,,SKC,0.00,VWS V14.01,2013-02-17 04:34:00,
2013-02-16 23:36:00,31.1,23.8,29.65,NNW,338,11.2,17.5,74,0.00,,SKC,0.00,VWS V14.01,2013-02-17 04:36:00,
2013-02-16 23:38:00,29.8,23.8,29.62,North,0,11.0,13.2,78,0.00,,SKC,0.00,VWS V14.01,2013-02-17 04:38:00,
2013-02-16 23:40:00,29.8,23.8,29.62,NNW,338,10.1,13.6,78,0.00,,SKC,0.00,VWS V14.01,2013-02-17 04:40:00,
2013-02-16 23:41:00,30.9,23.6,29.65,North,0,11.2,15.9,74,0.00,,SKC,0.00,VWS V14.01,2013-02-17 04:41:00,
2013-02-16 23:42:00,29.8,23.8,29.62,NNW,338,8.7,10.7,78,0.00,,SKC,0.00,VWS V14.01,2013-02-17 04:42:00,
2013-02-16 23:44:00,29.7,23.6,29.62,NNE,22,8.7,14.5,78,0.00,,SKC,0.00,VWS V14.01,2013-02-17 04:44:00,
2013-02-16 23:46:00,30.9,23.6,29.62,NNW,338,8.7,17.0,74,0.00,,SKC,0.00,VWS V14.01,2013-02-17 04:46:00,
2013-02-16 23:48:00,29.7,23.6,29.62,North,0,8.1,15.9,78,0.00,,SKC,0.00,VWS V14.01,2013-02-17 04:48:00,
2013-02-16 23:50:00,29.7,23.6,29.62,North,0,12.8,16.3,78,0.00,,SKC,0.00,VWS V14.01,2013-02-17 04:50:00,
2013-02-16 23:51:00,30.7,23.8,29.62,NW,315,11.0,12.5,75,0.00,,SKC,0.00,VWS V14.01,2013-02-17 04:51:00,
2013-02-16 23:52:00,29.5,23.5,29.62,NNW,338,9.4,17.7,78,0.00,,SKC,0.00,VWS V14.01,2013-02-17 04:52:00,
2013-02-16 23:54:00,29.5,23.5,29.62,NNW,338,11.0,17.2,78,0.00,,SKC,0.00,VWS V14.01,2013-02-17 04:54:00,
2013-02-16 23:56:00,30.7,23.8,29.62,North,0,17.2,17.2,75,0.00,,SKC,0.00,VWS V14.01,2013-02-17 04:56:00,
2013-02-16 23:58:00,29.5,23.5,29.62,North,0,12.3,19.5,78,0.00,,SKC,0.00,VWS V14.01,2013-02-17 04:58:00,